DAL40A YSSY-KLAX
Flight info
| Callsign | DAL40A |
|---|---|
| Flight time | 12h 50m |
| Altitude | 33000 |
| Route | NOBAR A579 JORDY DCT 3035S15956E 2904S16300E 2747S16527E 2425S17028E 2154S17334E 1955S17547E 1702S17843E 1348S17801W/N0504F350 1232S17641W 0826S17229W 0819S17222W 0557S17012W 0500S16919W 0322S16747W 0005N16429W 0304N16140W/N0498F370 0610N15844W 0915N15549W 1134N15336W 1217N15255W 1601N14848W 1735N14640W 1947N14311W/N0490F390 2242N13801W 2450N13409W 2738N12917W 2810N12822W DCT FOOTS DCT FICKY GOATZ2 |
| Aircraft | A359/H-SDE2E3GHIJ3J4J5LM1ORWXY/LB1D1 |
Departure
| Time | 2026-05-07 03:01 |
|---|---|
| Airport | Sydney Kingsford Smith International Airport (YSSY) |
Arrival
| Time | 2026-05-07 15:51 |
|---|---|
| Airport | Los Angeles International Airport (KLAX) |
| Time | Latitude | Longitude | Altitude | Speed | Heading |
|---|---|---|---|---|---|
| 2026-05-07 02:36 | -33.93888 | 151.16650 | 36 ft | 0 kts | 254° |
| 2026-05-07 02:39 | -33.93890 | 151.16642 | 36 ft | 1 kts | 254° |
| 2026-05-07 02:39 | -33.93892 | 151.16635 | 36 ft | 1 kts | 254° |
| 2026-05-07 02:39 | -33.93893 | 151.16630 | 36 ft | 0 kts | 254° |
| 2026-05-07 02:41 | -33.93886 | 151.16658 | 36 ft | 4 kts | 254° |
| 2026-05-07 02:42 | -33.93879 | 151.16690 | 36 ft | 4 kts | 254° |
| 2026-05-07 02:42 | -33.93873 | 151.16716 | 36 ft | 4 kts | 245° |
| 2026-05-07 02:42 | -33.93863 | 151.16735 | 36 ft | 4 kts | 203° |
| 2026-05-07 02:42 | -33.93840 | 151.16740 | 36 ft | 4 kts | 174° |
| 2026-05-07 02:43 | -33.93815 | 151.16735 | 36 ft | 2 kts | 165° |
| 2026-05-07 02:43 | -33.93814 | 151.16735 | 36 ft | 1 kts | 164° |
| 2026-05-07 02:46 | -33.93815 | 151.16735 | 36 ft | 1 kts | 165° |
| 2026-05-07 02:46 | -33.93846 | 151.16745 | 36 ft | 8 kts | 165° |
| 2026-05-07 02:46 | -33.93909 | 151.16766 | 36 ft | 10 kts | 165° |
| 2026-05-07 02:47 | -33.93980 | 151.16789 | 36 ft | 11 kts | 165° |
| 2026-05-07 02:47 | -33.94053 | 151.16814 | 36 ft | 11 kts | 164° |
| 2026-05-07 02:47 | -33.94127 | 151.16839 | 36 ft | 11 kts | 164° |
| 2026-05-07 02:47 | -33.94204 | 151.16869 | 34 ft | 12 kts | 159° |
| 2026-05-07 02:48 | -33.94284 | 151.16891 | 34 ft | 12 kts | 170° |
| 2026-05-07 02:48 | -33.94358 | 151.16907 | 35 ft | 10 kts | 169° |
| 2026-05-07 02:48 | -33.94400 | 151.16957 | 36 ft | 8 kts | 103° |
| 2026-05-07 02:48 | -33.94397 | 151.17026 | 36 ft | 8 kts | 81° |
| 2026-05-07 02:49 | -33.94384 | 151.17093 | 36 ft | 8 kts | 75° |
| 2026-05-07 02:49 | -33.94368 | 151.17160 | 36 ft | 10 kts | 72° |
| 2026-05-07 02:49 | -33.94343 | 151.17255 | 36 ft | 12 kts | 78° |
| 2026-05-07 02:49 | -33.94384 | 151.17325 | 36 ft | 11 kts | 156° |
| 2026-05-07 02:50 | -33.94454 | 151.17350 | 36 ft | 10 kts | 168° |
| 2026-05-07 02:50 | -33.94525 | 151.17368 | 36 ft | 11 kts | 168° |
| 2026-05-07 02:50 | -33.94597 | 151.17385 | 36 ft | 11 kts | 168° |
| 2026-05-07 02:50 | -33.94669 | 151.17402 | 36 ft | 11 kts | 168° |
| 2026-05-07 02:51 | -33.94743 | 151.17421 | 36 ft | 11 kts | 168° |
| 2026-05-07 02:51 | -33.94819 | 151.17441 | 36 ft | 11 kts | 167° |
| 2026-05-07 02:51 | -33.94897 | 151.17463 | 35 ft | 12 kts | 167° |
| 2026-05-07 02:51 | -33.94976 | 151.17485 | 36 ft | 12 kts | 167° |
| 2026-05-07 02:52 | -33.95054 | 151.17506 | 36 ft | 11 kts | 168° |
| 2026-05-07 02:52 | -33.95133 | 151.17526 | 34 ft | 12 kts | 168° |
| 2026-05-07 02:52 | -33.95213 | 151.17546 | 35 ft | 12 kts | 168° |
| 2026-05-07 02:52 | -33.95293 | 151.17566 | 35 ft | 12 kts | 168° |
| 2026-05-07 02:53 | -33.95371 | 151.17588 | 35 ft | 11 kts | 166° |
| 2026-05-07 02:53 | -33.95449 | 151.17610 | 36 ft | 11 kts | 168° |
| 2026-05-07 02:53 | -33.95526 | 151.17629 | 36 ft | 11 kts | 168° |
| 2026-05-07 02:53 | -33.95602 | 151.17647 | 36 ft | 11 kts | 168° |
| 2026-05-07 02:54 | -33.95676 | 151.17665 | 36 ft | 11 kts | 168° |
| 2026-05-07 02:54 | -33.95749 | 151.17683 | 36 ft | 11 kts | 168° |
| 2026-05-07 02:54 | -33.95823 | 151.17702 | 36 ft | 11 kts | 167° |
| 2026-05-07 02:54 | -33.95897 | 151.17721 | 36 ft | 11 kts | 168° |
| 2026-05-07 02:55 | -33.95972 | 151.17742 | 36 ft | 11 kts | 167° |
| 2026-05-07 02:55 | -33.96046 | 151.17762 | 36 ft | 11 kts | 167° |
| 2026-05-07 02:55 | -33.96119 | 151.17782 | 36 ft | 11 kts | 167° |
| 2026-05-07 02:55 | -33.96193 | 151.17802 | 36 ft | 11 kts | 167° |
| 2026-05-07 02:56 | -33.96268 | 151.17821 | 36 ft | 11 kts | 168° |
| 2026-05-07 02:56 | -33.96318 | 151.17834 | 36 ft | 11 kts | 168° |
| 2026-05-07 02:56 | -33.96392 | 151.17855 | 36 ft | 11 kts | 160° |
| 2026-05-07 02:56 | -33.96428 | 151.17900 | 36 ft | 0 kts | 107° |
| 2026-05-07 02:58 | -33.96431 | 151.17912 | 36 ft | 6 kts | 103° |
| 2026-05-07 02:58 | -33.96429 | 151.17976 | 36 ft | 8 kts | 80° |
| 2026-05-07 02:58 | -33.96418 | 151.18033 | 36 ft | 3 kts | 75° |
| 2026-05-07 02:59 | -33.96399 | 151.18050 | 36 ft | 4 kts | 23° |
| 2026-05-07 02:59 | -33.96378 | 151.18049 | 36 ft | 0 kts | 351° |
| 2026-05-07 03:00 | -33.96323 | 151.18037 | 36 ft | 29 kts | 348° |
| 2026-05-07 03:00 | -33.95886 | 151.17923 | 35 ft | 98 kts | 348° |
| 2026-05-07 03:01 | -33.95006 | 151.17695 | 34 ft | 159 kts | 348° |
| 2026-05-07 03:01 | -33.93770 | 151.17378 | 237 ft | 193 kts | 344° |
| 2026-05-07 03:01 | -33.92501 | 151.17045 | 1272 ft | 180 kts | 342° |
| 2026-05-07 03:01 | -33.91219 | 151.16714 | 1860 ft | 200 kts | 342° |
| 2026-05-07 03:02 | -33.89730 | 151.16754 | 2295 ft | 230 kts | 12° |
| 2026-05-07 03:02 | -33.88278 | 151.17769 | 2524 ft | 256 kts | 42° |
| 2026-05-07 03:02 | -33.87302 | 151.19648 | 2775 ft | 275 kts | 72° |
| 2026-05-07 03:02 | -33.86873 | 151.21915 | 3261 ft | 281 kts | 82° |
| 2026-05-07 03:03 | -33.86578 | 151.24258 | 3809 ft | 284 kts | 83° |
| 2026-05-07 03:03 | -33.86302 | 151.26614 | 4373 ft | 285 kts | 83° |
| 2026-05-07 03:03 | -33.86012 | 151.28990 | 4923 ft | 289 kts | 82° |
| 2026-05-07 03:03 | -33.85692 | 151.31336 | 5434 ft | 290 kts | 80° |
| 2026-05-07 03:04 | -33.85317 | 151.33732 | 5973 ft | 291 kts | 79° |
| 2026-05-07 03:04 | -33.84915 | 151.36127 | 6477 ft | 293 kts | 78° |
| 2026-05-07 03:04 | -33.84500 | 151.38539 | 7002 ft | 295 kts | 78° |
| 2026-05-07 03:04 | -33.84088 | 151.40958 | 7506 ft | 298 kts | 78° |
| 2026-05-07 03:05 | -33.83674 | 151.43418 | 8024 ft | 301 kts | 78° |
| 2026-05-07 03:05 | -33.83264 | 151.45889 | 8573 ft | 302 kts | 78° |
| 2026-05-07 03:05 | -33.82851 | 151.48381 | 9086 ft | 306 kts | 77° |
| 2026-05-07 03:05 | -33.82435 | 151.50906 | 9592 ft | 309 kts | 77° |
| 2026-05-07 03:06 | -33.82018 | 151.53457 | 10108 ft | 312 kts | 76° |
| 2026-05-07 03:06 | -33.81593 | 151.56057 | 10383 ft | 325 kts | 76° |
| 2026-05-07 03:06 | -33.81143 | 151.58786 | 10585 ft | 339 kts | 76° |
| 2026-05-07 03:06 | -33.80674 | 151.61623 | 10788 ft | 354 kts | 76° |
| 2026-05-07 03:07 | -33.80182 | 151.64585 | 10989 ft | 368 kts | 76° |
| 2026-05-07 03:07 | -33.79679 | 151.67607 | 11190 ft | 380 kts | 76° |
| 2026-05-07 03:07 | -33.79151 | 151.70785 | 11390 ft | 392 kts | 76° |
| 2026-05-07 03:07 | -33.78394 | 151.73970 | 11583 ft | 399 kts | 64° |
| 2026-05-07 03:08 | -33.77265 | 151.77030 | 11956 ft | 402 kts | 60° |
| 2026-05-07 03:08 | -33.76001 | 151.80033 | 12403 ft | 404 kts | 57° |
| 2026-05-07 03:08 | -33.74653 | 151.83017 | 12860 ft | 407 kts | 56° |
| 2026-05-07 03:08 | -33.73271 | 151.85994 | 13292 ft | 410 kts | 56° |
| 2026-05-07 03:09 | -33.71869 | 151.88995 | 13742 ft | 413 kts | 56° |
| 2026-05-07 03:09 | -33.70464 | 151.92017 | 14169 ft | 416 kts | 56° |
| 2026-05-07 03:09 | -33.69057 | 151.95060 | 14599 ft | 418 kts | 56° |
| 2026-05-07 03:09 | -33.67644 | 151.98130 | 15026 ft | 421 kts | 56° |
| 2026-05-07 03:10 | -33.66226 | 152.01221 | 15452 ft | 424 kts | 56° |
| 2026-05-07 03:10 | -33.64803 | 152.04344 | 15898 ft | 426 kts | 56° |
| 2026-05-07 03:10 | -33.63369 | 152.07480 | 16321 ft | 429 kts | 56° |
| 2026-05-07 03:10 | -33.61925 | 152.10629 | 16749 ft | 431 kts | 55° |
| 2026-05-07 03:11 | -33.60474 | 152.13786 | 17150 ft | 433 kts | 55° |
| 2026-05-07 03:11 | -33.59034 | 152.16913 | 17518 ft | 437 kts | 55° |
| 2026-05-07 03:11 | -33.57559 | 152.20120 | 17903 ft | 439 kts | 55° |
| 2026-05-07 03:11 | -33.56079 | 152.23336 | 18298 ft | 441 kts | 55° |
| 2026-05-07 03:12 | -33.54592 | 152.26564 | 18642 ft | 445 kts | 55° |
| 2026-05-07 03:12 | -33.53091 | 152.29820 | 19034 ft | 447 kts | 55° |
| 2026-05-07 03:12 | -33.51584 | 152.33087 | 19385 ft | 450 kts | 54° |
| 2026-05-07 03:12 | -33.50063 | 152.36382 | 19734 ft | 453 kts | 55° |
| 2026-05-07 03:13 | -33.48535 | 152.39694 | 20111 ft | 456 kts | 54° |
| 2026-05-07 03:13 | -33.46992 | 152.43032 | 20472 ft | 459 kts | 54° |
| 2026-05-07 03:13 | -33.45440 | 152.46381 | 20822 ft | 462 kts | 54° |
| 2026-05-07 03:13 | -33.43875 | 152.49762 | 21167 ft | 465 kts | 54° |
| 2026-05-07 03:14 | -33.42303 | 152.53150 | 21555 ft | 467 kts | 54° |
| 2026-05-07 03:14 | -33.40714 | 152.56569 | 21874 ft | 471 kts | 54° |
| 2026-05-07 03:14 | -33.37509 | 152.63455 | 22589 ft | 476 kts | 54° |
| 2026-05-07 03:15 | -33.35895 | 152.66921 | 22937 ft | 478 kts | 54° |
| 2026-05-07 03:15 | -33.34287 | 152.70371 | 23249 ft | 481 kts | 54° |
| 2026-05-07 03:15 | -33.32648 | 152.73882 | 23555 ft | 485 kts | 54° |
| 2026-05-07 03:15 | -33.30998 | 152.77414 | 23896 ft | 487 kts | 54° |
| 2026-05-07 03:16 | -33.29341 | 152.80962 | 24244 ft | 490 kts | 54° |
| 2026-05-07 03:16 | -33.27678 | 152.84516 | 24548 ft | 492 kts | 54° |
| 2026-05-07 03:16 | -33.26004 | 152.88092 | 24838 ft | 495 kts | 54° |
| 2026-05-07 03:16 | -33.24318 | 152.91691 | 25165 ft | 497 kts | 54° |
| 2026-05-07 03:17 | -33.22628 | 152.95298 | 25465 ft | 500 kts | 54° |
| 2026-05-07 03:17 | -33.20920 | 152.98932 | 25720 ft | 502 kts | 54° |
| 2026-05-07 03:17 | -33.19204 | 153.02581 | 25997 ft | 505 kts | 53° |
| 2026-05-07 03:17 | -33.17480 | 153.06240 | 26278 ft | 507 kts | 53° |
| 2026-05-07 03:18 | -33.15766 | 153.09879 | 26571 ft | 509 kts | 53° |
| 2026-05-07 03:18 | -33.14026 | 153.13573 | 26861 ft | 512 kts | 52° |
| 2026-05-07 03:18 | -33.12274 | 153.17287 | 27025 ft | 516 kts | 52° |
| 2026-05-07 03:18 | -33.10502 | 153.21030 | 27268 ft | 519 kts | 52° |
| 2026-05-07 03:19 | -33.08723 | 153.24785 | 27570 ft | 520 kts | 52° |
| 2026-05-07 03:19 | -33.06939 | 153.28547 | 27828 ft | 522 kts | 52° |
| 2026-05-07 03:19 | -33.05150 | 153.32320 | 28065 ft | 524 kts | 52° |
| 2026-05-07 03:19 | -33.03354 | 153.36104 | 28287 ft | 526 kts | 52° |
| 2026-05-07 03:20 | -33.01543 | 153.39914 | 28547 ft | 528 kts | 52° |
| 2026-05-07 03:20 | -32.99733 | 153.43720 | 28801 ft | 530 kts | 52° |
| 2026-05-07 03:20 | -32.97909 | 153.47553 | 28971 ft | 533 kts | 52° |
| 2026-05-07 03:20 | -32.96075 | 153.51404 | 29170 ft | 535 kts | 52° |
| 2026-05-07 03:21 | -32.94238 | 153.55253 | 29389 ft | 536 kts | 51° |
| 2026-05-07 03:21 | -32.92389 | 153.59118 | 29592 ft | 538 kts | 52° |
| 2026-05-07 03:21 | -32.90564 | 153.62936 | 29899 ft | 537 kts | 51° |
| 2026-05-07 03:21 | -32.88718 | 153.66800 | 30177 ft | 536 kts | 51° |
| 2026-05-07 03:22 | -32.86877 | 153.70649 | 30439 ft | 535 kts | 51° |
| 2026-05-07 03:22 | -32.85034 | 153.74491 | 30695 ft | 535 kts | 51° |
| 2026-05-07 03:22 | -32.83183 | 153.78346 | 30862 ft | 537 kts | 51° |
| 2026-05-07 03:22 | -32.81325 | 153.82211 | 31127 ft | 536 kts | 51° |
| 2026-05-07 03:23 | -32.79475 | 153.86058 | 31411 ft | 535 kts | 51° |
| 2026-05-07 03:23 | -32.77630 | 153.89889 | 31636 ft | 535 kts | 51° |
| 2026-05-07 03:23 | -32.75778 | 153.93725 | 31797 ft | 536 kts | 51° |
| 2026-05-07 03:23 | -32.73920 | 153.97570 | 31973 ft | 536 kts | 51° |
| 2026-05-07 03:24 | -32.72068 | 154.01402 | 32193 ft | 535 kts | 51° |
| 2026-05-07 03:24 | -32.70214 | 154.05237 | 32441 ft | 534 kts | 51° |
| 2026-05-07 03:24 | -32.68367 | 154.09053 | 32680 ft | 533 kts | 52° |
| 2026-05-07 03:24 | -32.66516 | 154.12874 | 32802 ft | 534 kts | 52° |
| 2026-05-07 03:25 | -32.64662 | 154.16695 | 32943 ft | 535 kts | 51° |
| 2026-05-07 03:25 | -32.60937 | 154.24342 | 32976 ft | 542 kts | 51° |
| 2026-05-07 03:26 | -32.57158 | 154.32102 | 32986 ft | 543 kts | 52° |
| 2026-05-07 03:26 | -32.53386 | 154.39847 | 32978 ft | 542 kts | 51° |
| 2026-05-07 03:27 | -32.49598 | 154.47591 | 33178 ft | 542 kts | 51° |
| 2026-05-07 03:27 | -32.47706 | 154.51459 | 33387 ft | 541 kts | 51° |
| 2026-05-07 03:27 | -32.45818 | 154.55312 | 33554 ft | 541 kts | 51° |
| 2026-05-07 03:28 | -32.42030 | 154.63021 | 33795 ft | 542 kts | 51° |
| 2026-05-07 03:28 | -32.40154 | 154.66888 | 33967 ft | 544 kts | 54° |
| 2026-05-07 03:28 | -32.38560 | 154.70992 | 34146 ft | 551 kts | 60° |
| 2026-05-07 03:28 | -32.37132 | 154.75205 | 34319 ft | 551 kts | 61° |
| 2026-05-07 03:29 | -32.35762 | 154.79434 | 34493 ft | 551 kts | 62° |
| 2026-05-07 03:29 | -32.34418 | 154.83674 | 34668 ft | 550 kts | 62° |
| 2026-05-07 03:29 | -32.33083 | 154.87910 | 34843 ft | 549 kts | 62° |
| 2026-05-07 03:29 | -32.31746 | 154.92136 | 34958 ft | 550 kts | 62° |
| 2026-05-07 03:30 | -32.30395 | 154.96379 | 34971 ft | 552 kts | 62° |
| 2026-05-07 03:30 | -32.27657 | 155.04915 | 34970 ft | 558 kts | 62° |
| 2026-05-07 03:31 | -32.24903 | 155.13459 | 34971 ft | 561 kts | 62° |
| 2026-05-07 03:31 | -32.22124 | 155.22073 | 34970 ft | 561 kts | 62° |
| 2026-05-07 03:32 | -32.19337 | 155.30695 | 34970 ft | 562 kts | 62° |
| 2026-05-07 03:32 | -32.16539 | 155.39317 | 34973 ft | 563 kts | 62° |
| 2026-05-07 03:33 | -32.13721 | 155.47968 | 34970 ft | 565 kts | 62° |
| 2026-05-07 03:33 | -32.10900 | 155.56619 | 34972 ft | 565 kts | 62° |
| 2026-05-07 03:34 | -32.08063 | 155.65274 | 34970 ft | 566 kts | 62° |
| 2026-05-07 03:34 | -32.05220 | 155.73928 | 34972 ft | 567 kts | 62° |
| 2026-05-07 03:35 | -32.02387 | 155.82550 | 34970 ft | 568 kts | 62° |
| 2026-05-07 03:35 | -31.99518 | 155.91217 | 34968 ft | 567 kts | 62° |
| 2026-05-07 03:36 | -31.96651 | 155.99908 | 34971 ft | 569 kts | 62° |
| 2026-05-07 03:36 | -31.93774 | 156.08591 | 34970 ft | 569 kts | 62° |
| 2026-05-07 03:37 | -31.90890 | 156.17269 | 34971 ft | 569 kts | 61° |
| 2026-05-07 03:37 | -31.88002 | 156.25929 | 34971 ft | 569 kts | 61° |
| 2026-05-07 03:38 | -31.85101 | 156.34599 | 34972 ft | 570 kts | 61° |
| 2026-05-07 03:38 | -31.82199 | 156.43258 | 34972 ft | 569 kts | 61° |
| 2026-05-07 03:39 | -31.79298 | 156.51868 | 34971 ft | 570 kts | 61° |
| 2026-05-07 03:39 | -31.76367 | 156.60546 | 34971 ft | 571 kts | 61° |
| 2026-05-07 03:40 | -31.73437 | 156.69227 | 34971 ft | 571 kts | 61° |
| 2026-05-07 03:40 | -31.70499 | 156.77908 | 34971 ft | 572 kts | 61° |
| 2026-05-07 03:41 | -31.67553 | 156.86593 | 34972 ft | 572 kts | 61° |
| 2026-05-07 03:41 | -31.64618 | 156.95212 | 34971 ft | 572 kts | 61° |
| 2026-05-07 03:42 | -31.61656 | 157.03880 | 34970 ft | 572 kts | 61° |
| 2026-05-07 03:42 | -31.58690 | 157.12551 | 34972 ft | 573 kts | 61° |
| 2026-05-07 03:43 | -31.55709 | 157.21231 | 34971 ft | 573 kts | 61° |
| 2026-05-07 03:43 | -31.52723 | 157.29904 | 34971 ft | 574 kts | 61° |
| 2026-05-07 03:44 | -31.49747 | 157.38532 | 34972 ft | 573 kts | 60° |
| 2026-05-07 03:44 | -31.46748 | 157.47197 | 34971 ft | 573 kts | 60° |
| 2026-05-07 03:45 | -31.43746 | 157.55850 | 34971 ft | 573 kts | 60° |
| 2026-05-07 03:45 | -31.41248 | 157.63030 | 34972 ft | 573 kts | 60° |
| 2026-05-07 03:46 | -31.38237 | 157.71675 | 34971 ft | 573 kts | 60° |
| 2026-05-07 03:46 | -31.34728 | 157.81711 | 34971 ft | 573 kts | 60° |
| 2026-05-07 03:47 | -31.32192 | 157.88944 | 34970 ft | 574 kts | 60° |
| 2026-05-07 03:47 | -31.29173 | 157.97533 | 34969 ft | 575 kts | 60° |
| 2026-05-07 03:48 | -31.26132 | 158.06167 | 34972 ft | 575 kts | 60° |
| 2026-05-07 03:48 | -31.23080 | 158.14820 | 34971 ft | 576 kts | 60° |
| 2026-05-07 03:49 | -31.20025 | 158.23463 | 34971 ft | 576 kts | 60° |
| 2026-05-07 03:49 | -31.16962 | 158.32120 | 34972 ft | 576 kts | 60° |
| 2026-05-07 03:50 | -31.13894 | 158.40746 | 34971 ft | 576 kts | 60° |
| 2026-05-07 03:50 | -31.10812 | 158.49375 | 34971 ft | 576 kts | 60° |
| 2026-05-07 03:51 | -31.07739 | 158.57961 | 34970 ft | 577 kts | 60° |
| 2026-05-07 03:51 | -31.04639 | 158.66607 | 34971 ft | 577 kts | 60° |
| 2026-05-07 03:52 | -31.01534 | 158.75241 | 34970 ft | 577 kts | 60° |
| 2026-05-07 03:52 | -30.98437 | 158.83857 | 34972 ft | 577 kts | 60° |
| 2026-05-07 03:53 | -30.95320 | 158.92493 | 34971 ft | 577 kts | 60° |
| 2026-05-07 03:53 | -30.92198 | 159.01119 | 34970 ft | 578 kts | 60° |
| 2026-05-07 03:54 | -30.89082 | 159.09703 | 34971 ft | 578 kts | 60° |
| 2026-05-07 03:54 | -30.85940 | 159.18331 | 34971 ft | 579 kts | 60° |
| 2026-05-07 03:55 | -30.82778 | 159.27009 | 34972 ft | 579 kts | 60° |
| 2026-05-07 03:55 | -30.79641 | 159.35588 | 34972 ft | 580 kts | 60° |
| 2026-05-07 03:56 | -30.76473 | 159.44229 | 34970 ft | 580 kts | 60° |
| 2026-05-07 03:56 | -30.73306 | 159.52863 | 34971 ft | 580 kts | 60° |
| 2026-05-07 03:57 | -30.70132 | 159.61477 | 34971 ft | 580 kts | 60° |
| 2026-05-07 03:57 | -30.66939 | 159.70118 | 34970 ft | 582 kts | 60° |
| 2026-05-07 03:58 | -30.63741 | 159.78760 | 34971 ft | 583 kts | 60° |
| 2026-05-07 03:58 | -30.60536 | 159.87404 | 34972 ft | 582 kts | 60° |
| 2026-05-07 03:59 | -30.57117 | 159.95823 | 34971 ft | 578 kts | 55° |
| 2026-05-07 03:59 | -30.53280 | 160.04021 | 34971 ft | 578 kts | 54° |
| 2026-05-07 04:00 | -30.49379 | 160.12158 | 34971 ft | 577 kts | 53° |
| 2026-05-07 04:00 | -30.45469 | 160.20288 | 34971 ft | 578 kts | 53° |
| 2026-05-07 04:01 | -30.41552 | 160.28450 | 34971 ft | 578 kts | 53° |
| 2026-05-07 04:01 | -30.37636 | 160.36598 | 34970 ft | 578 kts | 53° |
| 2026-05-07 04:02 | -30.33729 | 160.44716 | 34980 ft | 577 kts | 53° |
| 2026-05-07 04:02 | -30.29809 | 160.52840 | 34980 ft | 577 kts | 53° |
| 2026-05-07 04:03 | -30.25919 | 160.60895 | 34980 ft | 577 kts | 53° |
| 2026-05-07 04:03 | -30.22003 | 160.68982 | 34980 ft | 576 kts | 53° |
| 2026-05-07 04:04 | -30.18082 | 160.77054 | 34981 ft | 576 kts | 53° |
| 2026-05-07 04:04 | -30.14151 | 160.85133 | 34982 ft | 577 kts | 53° |
| 2026-05-07 04:05 | -30.10219 | 160.93204 | 34980 ft | 576 kts | 54° |
| 2026-05-07 04:05 | -30.06292 | 161.01248 | 34983 ft | 576 kts | 54° |
| 2026-05-07 04:06 | -30.02366 | 161.09271 | 34988 ft | 576 kts | 54° |
| 2026-05-07 04:06 | -29.98423 | 161.17313 | 34985 ft | 576 kts | 54° |
| 2026-05-07 04:07 | -29.94460 | 161.25374 | 34986 ft | 579 kts | 54° |
| 2026-05-07 04:07 | -29.90484 | 161.33452 | 34988 ft | 579 kts | 54° |
| 2026-05-07 04:08 | -29.86504 | 161.41525 | 34996 ft | 578 kts | 54° |
| 2026-05-07 04:08 | -29.82521 | 161.49580 | 34994 ft | 578 kts | 54° |
| 2026-05-07 04:09 | -29.78528 | 161.57631 | 34998 ft | 579 kts | 54° |
| 2026-05-07 04:09 | -29.74527 | 161.65689 | 35006 ft | 579 kts | 54° |
| 2026-05-07 04:10 | -29.70531 | 161.73729 | 35007 ft | 578 kts | 54° |
| 2026-05-07 04:10 | -29.66556 | 161.81705 | 35001 ft | 578 kts | 54° |
| 2026-05-07 04:11 | -29.62555 | 161.89716 | 35011 ft | 578 kts | 54° |
| 2026-05-07 04:11 | -29.58548 | 161.97721 | 35012 ft | 578 kts | 54° |
| 2026-05-07 04:12 | -29.54541 | 162.05711 | 35004 ft | 578 kts | 54° |
| 2026-05-07 04:12 | -29.50513 | 162.13733 | 35011 ft | 578 kts | 54° |
| 2026-05-07 04:13 | -29.46491 | 162.21723 | 35004 ft | 578 kts | 54° |
| 2026-05-07 04:13 | -29.42469 | 162.29699 | 35020 ft | 578 kts | 54° |
| 2026-05-07 04:14 | -29.38443 | 162.37664 | 35015 ft | 578 kts | 54° |
| 2026-05-07 04:14 | -29.34433 | 162.45580 | 35014 ft | 578 kts | 54° |
| 2026-05-07 04:15 | -29.30389 | 162.53529 | 35013 ft | 577 kts | 54° |
| 2026-05-07 04:15 | -29.26351 | 162.61474 | 35023 ft | 577 kts | 54° |
| 2026-05-07 04:16 | -29.22308 | 162.69425 | 35025 ft | 578 kts | 54° |
| 2026-05-07 04:16 | -29.18255 | 162.77371 | 35026 ft | 578 kts | 54° |
| 2026-05-07 04:17 | -29.14199 | 162.85306 | 35026 ft | 577 kts | 54° |
| 2026-05-07 04:17 | -29.10135 | 162.93239 | 35024 ft | 577 kts | 54° |
| 2026-05-07 04:18 | -29.06069 | 163.01157 | 35003 ft | 577 kts | 54° |
| 2026-05-07 04:18 | -29.02019 | 163.09085 | 35009 ft | 577 kts | 55° |
| 2026-05-07 04:19 | -28.97983 | 163.17024 | 35013 ft | 578 kts | 55° |
| 2026-05-07 04:19 | -28.93972 | 163.24905 | 35002 ft | 578 kts | 55° |
| 2026-05-07 04:20 | -28.89909 | 163.32822 | 35015 ft | 578 kts | 55° |
| 2026-05-07 04:20 | -28.85848 | 163.40740 | 35014 ft | 577 kts | 55° |
| 2026-05-07 04:21 | -28.79746 | 163.52593 | 35017 ft | 578 kts | 55° |
| 2026-05-07 04:21 | -28.75678 | 163.60486 | 35025 ft | 578 kts | 55° |
| 2026-05-07 04:22 | -28.71594 | 163.68391 | 35024 ft | 577 kts | 55° |
| 2026-05-07 04:22 | -28.67512 | 163.76282 | 35026 ft | 578 kts | 55° |
| 2026-05-07 04:23 | -28.63418 | 163.84176 | 35026 ft | 579 kts | 55° |
| 2026-05-07 04:23 | -28.59315 | 163.92071 | 35028 ft | 579 kts | 55° |
| 2026-05-07 04:24 | -28.55236 | 163.99902 | 35036 ft | 579 kts | 55° |
| 2026-05-07 04:24 | -28.51121 | 164.07790 | 35038 ft | 579 kts | 55° |
| 2026-05-07 04:25 | -28.47001 | 164.15677 | 35035 ft | 580 kts | 55° |
| 2026-05-07 04:25 | -28.42877 | 164.23561 | 35037 ft | 580 kts | 55° |
| 2026-05-07 04:26 | -28.38754 | 164.31430 | 35046 ft | 580 kts | 55° |
| 2026-05-07 04:26 | -28.34622 | 164.39293 | 35044 ft | 579 kts | 55° |
| 2026-05-07 04:27 | -28.30488 | 164.47144 | 35046 ft | 580 kts | 55° |
| 2026-05-07 04:27 | -28.26370 | 164.54947 | 35045 ft | 580 kts | 55° |
| 2026-05-07 04:28 | -28.22222 | 164.62797 | 35045 ft | 580 kts | 55° |
| 2026-05-07 04:28 | -28.18073 | 164.70637 | 35054 ft | 580 kts | 55° |
| 2026-05-07 04:29 | -28.13922 | 164.78468 | 35055 ft | 579 kts | 55° |
| 2026-05-07 04:29 | -28.09768 | 164.86288 | 35053 ft | 579 kts | 55° |
| 2026-05-07 04:30 | -28.05617 | 164.94086 | 35053 ft | 578 kts | 55° |
| 2026-05-07 04:30 | -28.01457 | 165.01879 | 35055 ft | 578 kts | 55° |
| 2026-05-07 04:31 | -27.97302 | 165.09669 | 35055 ft | 578 kts | 55° |
| 2026-05-07 04:31 | -27.93152 | 165.17417 | 35058 ft | 580 kts | 55° |
| 2026-05-07 04:32 | -27.88969 | 165.25218 | 35062 ft | 579 kts | 55° |
| 2026-05-07 04:32 | -27.84788 | 165.33005 | 35063 ft | 579 kts | 55° |
| 2026-05-07 04:33 | -27.80605 | 165.40780 | 35061 ft | 579 kts | 55° |
| 2026-05-07 04:33 | -27.76365 | 165.48522 | 35063 ft | 578 kts | 52° |
| 2026-05-07 04:34 | -27.72498 | 165.54647 | 35067 ft | 576 kts | 49° |
| 2026-05-07 04:34 | -27.67682 | 165.61909 | 35062 ft | 576 kts | 49° |
| 2026-05-07 04:35 | -27.62170 | 165.70380 | 35061 ft | 576 kts | 50° |
| 2026-05-07 04:35 | -27.58268 | 165.76475 | 35063 ft | 576 kts | 50° |
| 2026-05-07 04:36 | -27.53586 | 165.83813 | 35061 ft | 576 kts | 50° |
| 2026-05-07 04:36 | -27.48904 | 165.91135 | 35065 ft | 576 kts | 50° |
| 2026-05-07 04:37 | -27.44201 | 165.98468 | 35063 ft | 576 kts | 50° |
| 2026-05-07 04:37 | -27.39505 | 166.05767 | 35061 ft | 576 kts | 50° |
| 2026-05-07 04:38 | -27.34803 | 166.13073 | 35067 ft | 576 kts | 50° |
| 2026-05-07 04:38 | -27.30097 | 166.20373 | 35073 ft | 577 kts | 50° |
| 2026-05-07 04:39 | -27.25372 | 166.27684 | 35066 ft | 576 kts | 50° |
| 2026-05-07 04:39 | -27.20654 | 166.34975 | 35064 ft | 577 kts | 50° |
| 2026-05-07 04:40 | -27.15922 | 166.42270 | 35066 ft | 578 kts | 50° |
| 2026-05-07 04:40 | -27.11185 | 166.49566 | 35059 ft | 578 kts | 50° |
| 2026-05-07 04:41 | -27.06473 | 166.56816 | 35067 ft | 578 kts | 50° |
| 2026-05-07 04:41 | -27.01727 | 166.64101 | 35065 ft | 579 kts | 50° |
| 2026-05-07 04:42 | -26.96965 | 166.71392 | 35060 ft | 579 kts | 50° |
| 2026-05-07 04:42 | -26.92199 | 166.78697 | 35065 ft | 579 kts | 50° |
| 2026-05-07 04:43 | -26.87432 | 166.85982 | 35064 ft | 579 kts | 50° |
| 2026-05-07 04:43 | -26.82657 | 166.93266 | 35066 ft | 579 kts | 50° |
| 2026-05-07 04:44 | -26.77916 | 167.00485 | 35061 ft | 579 kts | 50° |
| 2026-05-07 04:44 | -26.73139 | 167.07741 | 35058 ft | 579 kts | 51° |
| 2026-05-07 04:45 | -26.68361 | 167.14996 | 35055 ft | 580 kts | 51° |
| 2026-05-07 04:45 | -26.63570 | 167.22262 | 35055 ft | 580 kts | 50° |
| 2026-05-07 04:46 | -26.58777 | 167.29517 | 35056 ft | 579 kts | 51° |
| 2026-05-07 04:46 | -26.53983 | 167.36755 | 35054 ft | 580 kts | 51° |
| 2026-05-07 04:47 | -26.49208 | 167.43963 | 35053 ft | 580 kts | 51° |
| 2026-05-07 04:47 | -26.44399 | 167.51202 | 35055 ft | 581 kts | 51° |
| 2026-05-07 04:48 | -26.39584 | 167.58439 | 35055 ft | 581 kts | 51° |
| 2026-05-07 04:48 | -26.34768 | 167.65673 | 35048 ft | 582 kts | 51° |
| 2026-05-07 04:49 | -26.29939 | 167.72914 | 35046 ft | 582 kts | 51° |
| 2026-05-07 04:49 | -26.25097 | 167.80154 | 35044 ft | 582 kts | 51° |
| 2026-05-07 04:50 | -26.20258 | 167.87379 | 35045 ft | 582 kts | 51° |
| 2026-05-07 04:50 | -26.15446 | 167.94560 | 35046 ft | 582 kts | 51° |
| 2026-05-07 04:51 | -26.10595 | 168.01786 | 35054 ft | 582 kts | 51° |
| 2026-05-07 04:51 | -26.05744 | 168.09006 | 35054 ft | 582 kts | 51° |
| 2026-05-07 04:52 | -26.00888 | 168.16211 | 35055 ft | 582 kts | 51° |
| 2026-05-07 04:52 | -25.96023 | 168.23416 | 35047 ft | 582 kts | 50° |
| 2026-05-07 04:53 | -25.91190 | 168.30565 | 35045 ft | 582 kts | 51° |
| 2026-05-07 04:53 | -25.86324 | 168.37759 | 35045 ft | 582 kts | 51° |
| 2026-05-07 04:54 | -25.81453 | 168.44950 | 35045 ft | 583 kts | 51° |
| 2026-05-07 04:54 | -25.76576 | 168.52135 | 35045 ft | 582 kts | 51° |
| 2026-05-07 04:55 | -25.71694 | 168.59314 | 35046 ft | 583 kts | 51° |
| 2026-05-07 04:55 | -25.66806 | 168.66493 | 35041 ft | 583 kts | 51° |
| 2026-05-07 04:56 | -25.61923 | 168.73656 | 35035 ft | 582 kts | 51° |
| 2026-05-07 04:56 | -25.57032 | 168.80816 | 35035 ft | 582 kts | 51° |
| 2026-05-07 04:57 | -25.52169 | 168.87920 | 35036 ft | 582 kts | 51° |
| 2026-05-07 04:57 | -25.47242 | 168.95113 | 35037 ft | 582 kts | 51° |
| 2026-05-07 04:58 | -25.42379 | 169.02204 | 35035 ft | 582 kts | 51° |
| 2026-05-07 04:58 | -25.37481 | 169.09330 | 35035 ft | 581 kts | 51° |
| 2026-05-07 04:59 | -25.32591 | 169.16438 | 35029 ft | 582 kts | 51° |
| 2026-05-07 04:59 | -25.27680 | 169.23571 | 35025 ft | 582 kts | 51° |
| 2026-05-07 05:00 | -25.22763 | 169.30690 | 35025 ft | 582 kts | 51° |
| 2026-05-07 05:00 | -25.17883 | 169.37744 | 35025 ft | 582 kts | 51° |
| 2026-05-07 05:01 | -25.12972 | 169.44833 | 35026 ft | 581 kts | 51° |
| 2026-05-07 05:01 | -25.08052 | 169.51929 | 35026 ft | 582 kts | 51° |
| 2026-05-07 05:02 | -25.03124 | 169.59029 | 35026 ft | 582 kts | 51° |
| 2026-05-07 05:02 | -24.98201 | 169.66104 | 35025 ft | 582 kts | 51° |
| 2026-05-07 05:03 | -24.93271 | 169.73184 | 35018 ft | 582 kts | 51° |
| 2026-05-07 05:03 | -24.88337 | 169.80256 | 35019 ft | 582 kts | 51° |
| 2026-05-07 05:04 | -24.83402 | 169.87323 | 35036 ft | 582 kts | 51° |
| 2026-05-07 05:04 | -24.78451 | 169.94400 | 35035 ft | 583 kts | 51° |
| 2026-05-07 05:05 | -24.73500 | 170.01462 | 35027 ft | 583 kts | 51° |
| 2026-05-07 05:05 | -24.68540 | 170.08532 | 35029 ft | 583 kts | 51° |
| 2026-05-07 05:06 | -24.63591 | 170.15580 | 35026 ft | 583 kts | 51° |
| 2026-05-07 05:06 | -24.58630 | 170.22632 | 35028 ft | 583 kts | 51° |
| 2026-05-07 05:07 | -24.53664 | 170.29676 | 35025 ft | 583 kts | 51° |
| 2026-05-07 05:07 | -24.48734 | 170.36659 | 35026 ft | 583 kts | 51° |
| 2026-05-07 05:08 | -24.43761 | 170.43692 | 35016 ft | 583 kts | 51° |
| 2026-05-07 05:08 | -24.38734 | 170.50671 | 35019 ft | 582 kts | 49° |
| 2026-05-07 05:09 | -24.33424 | 170.57359 | 35019 ft | 582 kts | 47° |
| 2026-05-07 05:09 | -24.28036 | 170.64015 | 35015 ft | 582 kts | 47° |
| 2026-05-07 05:10 | -24.22702 | 170.70692 | 35016 ft | 582 kts | 47° |
| 2026-05-07 05:10 | -24.17397 | 170.77391 | 35016 ft | 582 kts | 48° |
| 2026-05-07 05:11 | -24.12097 | 170.84095 | 35006 ft | 581 kts | 48° |
| 2026-05-07 05:11 | -24.06796 | 170.90783 | 35006 ft | 582 kts | 47° |
| 2026-05-07 05:12 | -24.01482 | 170.97473 | 35010 ft | 581 kts | 48° |
| 2026-05-07 05:12 | -23.96212 | 171.04100 | 35009 ft | 581 kts | 48° |
| 2026-05-07 05:13 | -23.90905 | 171.10758 | 35005 ft | 581 kts | 48° |
| 2026-05-07 05:13 | -23.85594 | 171.17419 | 35007 ft | 581 kts | 48° |
| 2026-05-07 05:14 | -23.80277 | 171.24075 | 35007 ft | 581 kts | 48° |
| 2026-05-07 05:14 | -23.74947 | 171.30738 | 35003 ft | 581 kts | 48° |
| 2026-05-07 05:15 | -23.69625 | 171.37384 | 35004 ft | 581 kts | 48° |
| 2026-05-07 05:15 | -23.64301 | 171.44020 | 34991 ft | 581 kts | 48° |
| 2026-05-07 05:16 | -23.59010 | 171.50611 | 35000 ft | 581 kts | 48° |
| 2026-05-07 05:16 | -23.53682 | 171.57240 | 34998 ft | 580 kts | 48° |
| 2026-05-07 05:17 | -23.48361 | 171.63848 | 35001 ft | 580 kts | 48° |
| 2026-05-07 05:17 | -23.43034 | 171.70452 | 34996 ft | 580 kts | 48° |
| 2026-05-07 05:18 | -23.37696 | 171.77059 | 34985 ft | 581 kts | 48° |
| 2026-05-07 05:18 | -23.32363 | 171.83663 | 34985 ft | 581 kts | 48° |
| 2026-05-07 05:19 | -23.27023 | 171.90258 | 34997 ft | 580 kts | 48° |
| 2026-05-07 05:19 | -23.21690 | 171.96837 | 34985 ft | 580 kts | 48° |
| 2026-05-07 05:20 | -23.16346 | 172.03419 | 34986 ft | 581 kts | 48° |
| 2026-05-07 05:20 | -23.11027 | 172.09960 | 34988 ft | 581 kts | 48° |
| 2026-05-07 05:21 | -23.02995 | 172.19831 | 34987 ft | 581 kts | 48° |
| 2026-05-07 05:22 | -22.98544 | 172.25290 | 34980 ft | 581 kts | 48° |
| 2026-05-07 05:22 | -22.93184 | 172.31858 | 34981 ft | 581 kts | 48° |
| 2026-05-07 05:23 | -22.87810 | 172.38428 | 34981 ft | 582 kts | 48° |
| 2026-05-07 05:23 | -22.82432 | 172.45000 | 34979 ft | 582 kts | 48° |
| 2026-05-07 05:24 | -22.77057 | 172.51562 | 34981 ft | 582 kts | 48° |
| 2026-05-07 05:24 | -22.71704 | 172.58087 | 34981 ft | 582 kts | 48° |
| 2026-05-07 05:25 | -22.66317 | 172.64641 | 34981 ft | 582 kts | 48° |
| 2026-05-07 05:25 | -22.60936 | 172.71178 | 34980 ft | 582 kts | 48° |
| 2026-05-07 05:26 | -22.55546 | 172.77724 | 34980 ft | 582 kts | 48° |
| 2026-05-07 05:26 | -22.50154 | 172.84266 | 34981 ft | 582 kts | 48° |
| 2026-05-07 05:27 | -22.44754 | 172.90808 | 34981 ft | 582 kts | 48° |
| 2026-05-07 05:27 | -22.39353 | 172.97340 | 34980 ft | 582 kts | 48° |
| 2026-05-07 05:28 | -22.33974 | 173.03838 | 34980 ft | 581 kts | 48° |
| 2026-05-07 05:28 | -22.28605 | 173.10311 | 34980 ft | 581 kts | 48° |
| 2026-05-07 05:29 | -22.23202 | 173.16821 | 34981 ft | 581 kts | 48° |
| 2026-05-07 05:29 | -22.17803 | 173.23320 | 34976 ft | 581 kts | 48° |
| 2026-05-07 05:30 | -22.12405 | 173.29812 | 34964 ft | 581 kts | 48° |
| 2026-05-07 05:30 | -22.07006 | 173.36298 | 34963 ft | 580 kts | 48° |
| 2026-05-07 05:31 | -22.01607 | 173.42773 | 34962 ft | 580 kts | 48° |
| 2026-05-07 05:31 | -21.96236 | 173.49203 | 34963 ft | 580 kts | 48° |
| 2026-05-07 05:32 | -21.90827 | 173.55668 | 34963 ft | 579 kts | 48° |
| 2026-05-07 05:32 | -21.85385 | 173.62061 | 34962 ft | 579 kts | 46° |
| 2026-05-07 05:33 | -21.79809 | 173.68351 | 34959 ft | 579 kts | 46° |
| 2026-05-07 05:33 | -21.74275 | 173.74578 | 34964 ft | 579 kts | 46° |
| 2026-05-07 05:34 | -21.68724 | 173.80873 | 34960 ft | 580 kts | 46° |
| 2026-05-07 05:34 | -21.63183 | 173.87167 | 34959 ft | 579 kts | 46° |
| 2026-05-07 05:35 | -21.57634 | 173.93462 | 34952 ft | 579 kts | 46° |
| 2026-05-07 05:35 | -21.52086 | 173.99745 | 34952 ft | 579 kts | 46° |
| 2026-05-07 05:36 | -21.46551 | 174.06009 | 34956 ft | 580 kts | 46° |
| 2026-05-07 05:36 | -21.40982 | 174.12299 | 34952 ft | 579 kts | 46° |
| 2026-05-07 05:37 | -21.35423 | 174.18571 | 34951 ft | 579 kts | 46° |
| 2026-05-07 05:37 | -21.29866 | 174.24835 | 34949 ft | 579 kts | 46° |
| 2026-05-07 05:38 | -21.24341 | 174.31056 | 34953 ft | 580 kts | 46° |
| 2026-05-07 05:38 | -21.18783 | 174.37302 | 34952 ft | 580 kts | 46° |
| 2026-05-07 05:39 | -21.13215 | 174.43557 | 34953 ft | 579 kts | 46° |
| 2026-05-07 05:39 | -21.07650 | 174.49801 | 34953 ft | 580 kts | 46° |
| 2026-05-07 05:40 | -21.02079 | 174.56045 | 34952 ft | 579 kts | 46° |
| 2026-05-07 05:40 | -20.96533 | 174.62248 | 34956 ft | 579 kts | 46° |
| 2026-05-07 05:41 | -20.90959 | 174.68480 | 34947 ft | 578 kts | 46° |
| 2026-05-07 05:41 | -20.85396 | 174.74695 | 34942 ft | 578 kts | 46° |
| 2026-05-07 05:42 | -20.79832 | 174.80904 | 34941 ft | 578 kts | 46° |
| 2026-05-07 05:42 | -20.74290 | 174.87075 | 34940 ft | 578 kts | 46° |
| 2026-05-07 05:43 | -20.68724 | 174.93268 | 34944 ft | 579 kts | 46° |
| 2026-05-07 05:43 | -20.63142 | 174.99474 | 34943 ft | 578 kts | 46° |
| 2026-05-07 05:44 | -20.57567 | 175.05663 | 34934 ft | 577 kts | 46° |
| 2026-05-07 05:44 | -20.51995 | 175.11847 | 34937 ft | 577 kts | 46° |
| 2026-05-07 05:45 | -20.46419 | 175.18024 | 34936 ft | 577 kts | 46° |
| 2026-05-07 05:45 | -20.40845 | 175.24193 | 34934 ft | 577 kts | 46° |
| 2026-05-07 05:46 | -20.35309 | 175.30313 | 34936 ft | 577 kts | 46° |
| 2026-05-07 05:46 | -20.29746 | 175.36458 | 34933 ft | 576 kts | 46° |
| 2026-05-07 05:47 | -20.24175 | 175.42600 | 34926 ft | 575 kts | 46° |
| 2026-05-07 05:47 | -20.18616 | 175.48725 | 34925 ft | 575 kts | 46° |
| 2026-05-07 05:48 | -20.13055 | 175.54847 | 34924 ft | 575 kts | 46° |
| 2026-05-07 05:48 | -20.07497 | 175.60959 | 34925 ft | 574 kts | 46° |
| 2026-05-07 05:49 | -20.01939 | 175.67062 | 34925 ft | 574 kts | 46° |
| 2026-05-07 05:49 | -19.96408 | 175.73129 | 34925 ft | 574 kts | 46° |
| 2026-05-07 05:50 | -19.90842 | 175.79228 | 34924 ft | 573 kts | 46° |
| 2026-05-07 05:50 | -19.85176 | 175.85215 | 34924 ft | 574 kts | 44° |
| 2026-05-07 05:51 | -19.79439 | 175.91117 | 34925 ft | 573 kts | 44° |
| 2026-05-07 05:51 | -19.73745 | 175.96994 | 34924 ft | 574 kts | 44° |
| 2026-05-07 05:52 | -19.68041 | 176.02915 | 34925 ft | 574 kts | 44° |
| 2026-05-07 05:52 | -19.62338 | 176.08842 | 34924 ft | 573 kts | 44° |
| 2026-05-07 05:53 | -19.56622 | 176.14775 | 34916 ft | 574 kts | 44° |
| 2026-05-07 05:53 | -19.50953 | 176.20650 | 34915 ft | 573 kts | 44° |
| 2026-05-07 05:54 | -19.45251 | 176.26551 | 34916 ft | 573 kts | 44° |
| 2026-05-07 05:54 | -19.39550 | 176.32446 | 34916 ft | 572 kts | 44° |
| 2026-05-07 05:55 | -19.33845 | 176.38337 | 34916 ft | 572 kts | 44° |
| 2026-05-07 05:55 | -19.28142 | 176.44224 | 34915 ft | 572 kts | 44° |
| 2026-05-07 05:56 | -19.22429 | 176.50116 | 34916 ft | 572 kts | 44° |
| 2026-05-07 05:56 | -19.16727 | 176.55985 | 34916 ft | 572 kts | 44° |
| 2026-05-07 05:57 | -19.11065 | 176.61804 | 34915 ft | 571 kts | 44° |
| 2026-05-07 05:57 | -19.05368 | 176.67661 | 34916 ft | 571 kts | 44° |
| 2026-05-07 05:58 | -18.99666 | 176.73515 | 34916 ft | 570 kts | 44° |
| 2026-05-07 05:58 | -18.93976 | 176.79351 | 34915 ft | 570 kts | 44° |
| 2026-05-07 05:59 | -18.88281 | 176.85190 | 34916 ft | 570 kts | 44° |
| 2026-05-07 05:59 | -18.82587 | 176.91014 | 34915 ft | 570 kts | 44° |
| 2026-05-07 06:00 | -18.76931 | 176.96797 | 34915 ft | 569 kts | 44° |
| 2026-05-07 06:00 | -18.71241 | 177.02608 | 34916 ft | 569 kts | 44° |
| 2026-05-07 06:01 | -18.65561 | 177.08410 | 34916 ft | 569 kts | 44° |
| 2026-05-07 06:01 | -18.59862 | 177.14215 | 34916 ft | 569 kts | 44° |
| 2026-05-07 06:02 | -18.54175 | 177.20006 | 34916 ft | 569 kts | 44° |
| 2026-05-07 06:02 | -18.48486 | 177.25796 | 34916 ft | 568 kts | 44° |
| 2026-05-07 06:03 | -18.42802 | 177.31575 | 34916 ft | 568 kts | 44° |
| 2026-05-07 06:03 | -18.37106 | 177.37358 | 34933 ft | 570 kts | 44° |
| 2026-05-07 06:04 | -18.31430 | 177.43117 | 34934 ft | 570 kts | 44° |
| 2026-05-07 06:04 | -18.25721 | 177.48906 | 34934 ft | 570 kts | 44° |
| 2026-05-07 06:05 | -18.20005 | 177.54696 | 34934 ft | 570 kts | 44° |
| 2026-05-07 06:05 | -18.14300 | 177.60469 | 34934 ft | 569 kts | 44° |
| 2026-05-07 06:06 | -18.08584 | 177.66244 | 34932 ft | 570 kts | 44° |
| 2026-05-07 06:06 | -18.02866 | 177.72015 | 34936 ft | 569 kts | 44° |
| 2026-05-07 06:07 | -17.97144 | 177.77786 | 34935 ft | 569 kts | 44° |
| 2026-05-07 06:07 | -17.91430 | 177.83543 | 34930 ft | 569 kts | 44° |
| 2026-05-07 06:08 | -17.85713 | 177.89298 | 34933 ft | 569 kts | 44° |
| 2026-05-07 06:08 | -17.80041 | 177.95009 | 34934 ft | 569 kts | 44° |
| 2026-05-07 06:09 | -17.74317 | 178.00766 | 34931 ft | 569 kts | 44° |
| 2026-05-07 06:09 | -17.68601 | 178.06500 | 34943 ft | 569 kts | 44° |
| 2026-05-07 06:10 | -17.62880 | 178.12237 | 34934 ft | 568 kts | 44° |
| 2026-05-07 06:10 | -17.57165 | 178.17965 | 34935 ft | 568 kts | 44° |
| 2026-05-07 06:11 | -17.51452 | 178.23684 | 34934 ft | 567 kts | 44° |
| 2026-05-07 06:11 | -17.45778 | 178.29360 | 34934 ft | 567 kts | 44° |
| 2026-05-07 06:12 | -17.40075 | 178.35062 | 34933 ft | 566 kts | 43° |
| 2026-05-07 06:12 | -17.34374 | 178.40754 | 34936 ft | 565 kts | 43° |
| 2026-05-07 06:13 | -17.29636 | 178.45481 | 34933 ft | 566 kts | 44° |
| 2026-05-07 06:13 | -17.23943 | 178.51157 | 34932 ft | 565 kts | 43° |
| 2026-05-07 06:14 | -17.18256 | 178.56818 | 34934 ft | 564 kts | 43° |
| 2026-05-07 06:14 | -17.12569 | 178.62476 | 34934 ft | 564 kts | 43° |
| 2026-05-07 06:15 | -17.06873 | 178.68139 | 34934 ft | 563 kts | 43° |
| 2026-05-07 06:15 | -17.01201 | 178.73792 | 34934 ft | 562 kts | 44° |
| 2026-05-07 06:16 | -16.95672 | 178.79497 | 34934 ft | 562 kts | 45° |
| 2026-05-07 06:16 | -16.90140 | 178.85265 | 34933 ft | 562 kts | 45° |
| 2026-05-07 06:17 | -16.84599 | 178.91011 | 34932 ft | 561 kts | 45° |
| 2026-05-07 06:17 | -16.79043 | 178.96745 | 34932 ft | 561 kts | 45° |
| 2026-05-07 06:18 | -16.73484 | 179.02469 | 34916 ft | 561 kts | 45° |
| 2026-05-07 06:18 | -16.67928 | 179.08185 | 34915 ft | 561 kts | 45° |
| 2026-05-07 06:19 | -16.62409 | 179.13857 | 34916 ft | 560 kts | 44° |
| 2026-05-07 06:19 | -16.56826 | 179.19595 | 34906 ft | 560 kts | 45° |
| 2026-05-07 06:20 | -16.51305 | 179.25267 | 34889 ft | 560 kts | 44° |
| 2026-05-07 06:20 | -16.45749 | 179.30964 | 34887 ft | 560 kts | 44° |
| 2026-05-07 06:21 | -16.40194 | 179.36661 | 34888 ft | 560 kts | 44° |
| 2026-05-07 06:21 | -16.34642 | 179.42350 | 34888 ft | 559 kts | 44° |
| 2026-05-07 06:22 | -16.29098 | 179.48023 | 34888 ft | 559 kts | 44° |
| 2026-05-07 06:22 | -16.20801 | 179.56495 | 34888 ft | 559 kts | 44° |
| 2026-05-07 06:23 | -16.15259 | 179.62153 | 34888 ft | 558 kts | 44° |
| 2026-05-07 06:23 | -16.09713 | 179.67812 | 34888 ft | 558 kts | 44° |
| 2026-05-07 06:24 | -16.04168 | 179.73461 | 34888 ft | 558 kts | 44° |
| 2026-05-07 06:24 | -15.98635 | 179.79100 | 34889 ft | 557 kts | 44° |
| 2026-05-07 06:25 | -15.93083 | 179.84754 | 34888 ft | 558 kts | 44° |
| 2026-05-07 06:25 | -15.87532 | 179.90392 | 34888 ft | 558 kts | 44° |
| 2026-05-07 06:26 | -15.82026 | 179.95992 | 34888 ft | 558 kts | 44° |
| 2026-05-07 06:26 | -15.76472 | -179.98363 | 34878 ft | 558 kts | 44° |
| 2026-05-07 06:27 | -15.70925 | -179.92742 | 34859 ft | 557 kts | 44° |
| 2026-05-07 06:27 | -15.65379 | -179.87120 | 34859 ft | 557 kts | 44° |
| 2026-05-07 06:28 | -15.59847 | -179.81514 | 34860 ft | 555 kts | 44° |
| 2026-05-07 06:28 | -15.54311 | -179.75918 | 34860 ft | 555 kts | 44° |
| 2026-05-07 06:29 | -15.48820 | -179.70367 | 34860 ft | 554 kts | 44° |
| 2026-05-07 06:29 | -15.43312 | -179.64799 | 34860 ft | 553 kts | 44° |
| 2026-05-07 06:30 | -15.37804 | -179.59237 | 34860 ft | 552 kts | 44° |
| 2026-05-07 06:30 | -15.32307 | -179.53692 | 34860 ft | 551 kts | 44° |
| 2026-05-07 06:31 | -15.26814 | -179.48154 | 34860 ft | 550 kts | 44° |
| 2026-05-07 06:31 | -15.21329 | -179.42630 | 34860 ft | 549 kts | 44° |
| 2026-05-07 06:32 | -15.15851 | -179.37115 | 34860 ft | 548 kts | 44° |
| 2026-05-07 06:32 | -15.10388 | -179.31622 | 34860 ft | 547 kts | 44° |
| 2026-05-07 06:33 | -15.04978 | -179.26188 | 34860 ft | 546 kts | 44° |
| 2026-05-07 06:33 | -14.99521 | -179.20706 | 34860 ft | 545 kts | 44° |
| 2026-05-07 06:34 | -14.94086 | -179.15250 | 34862 ft | 544 kts | 44° |
| 2026-05-07 06:34 | -14.88654 | -179.09803 | 34860 ft | 543 kts | 43° |
| 2026-05-07 06:35 | -14.83230 | -179.04362 | 34860 ft | 542 kts | 43° |
| 2026-05-07 06:35 | -14.77811 | -178.98935 | 34860 ft | 542 kts | 43° |
| 2026-05-07 06:36 | -14.72396 | -178.93516 | 34860 ft | 542 kts | 43° |
| 2026-05-07 06:36 | -14.66979 | -178.88103 | 34860 ft | 541 kts | 43° |
| 2026-05-07 06:37 | -14.61560 | -178.82697 | 34860 ft | 541 kts | 43° |
| 2026-05-07 06:37 | -14.56149 | -178.77294 | 34860 ft | 541 kts | 43° |
| 2026-05-07 06:38 | -14.50744 | -178.71901 | 34860 ft | 540 kts | 43° |
| 2026-05-07 06:38 | -14.45385 | -178.66560 | 34860 ft | 539 kts | 43° |
| 2026-05-07 06:39 | -14.39988 | -178.61185 | 34860 ft | 538 kts | 43° |
| 2026-05-07 06:39 | -14.34597 | -178.55817 | 34860 ft | 538 kts | 43° |
| 2026-05-07 06:40 | -14.29213 | -178.50457 | 34860 ft | 537 kts | 43° |
| 2026-05-07 06:40 | -14.23837 | -178.45115 | 34860 ft | 537 kts | 43° |
| 2026-05-07 06:41 | -14.18499 | -178.39815 | 34860 ft | 536 kts | 43° |
| 2026-05-07 06:41 | -14.13130 | -178.34483 | 34861 ft | 535 kts | 42° |
| 2026-05-07 06:42 | -14.07766 | -178.29159 | 34860 ft | 535 kts | 42° |
| 2026-05-07 06:42 | -14.02407 | -178.23845 | 34859 ft | 535 kts | 42° |
| 2026-05-07 06:43 | -13.97053 | -178.18540 | 34878 ft | 534 kts | 42° |
| 2026-05-07 06:43 | -13.91693 | -178.13235 | 34878 ft | 534 kts | 42° |
| 2026-05-07 06:44 | -13.86330 | -178.07932 | 34885 ft | 534 kts | 42° |
| 2026-05-07 06:44 | -13.80964 | -178.02631 | 34888 ft | 535 kts | 42° |
| 2026-05-07 06:45 | -13.75699 | -177.97287 | 34888 ft | 535 kts | 44° |
| 2026-05-07 06:45 | -13.70549 | -177.91753 | 34888 ft | 535 kts | 45° |
| 2026-05-07 06:46 | -13.65405 | -177.86220 | 34888 ft | 534 kts | 44° |
| 2026-05-07 06:46 | -13.60242 | -177.80730 | 34887 ft | 533 kts | 44° |
| 2026-05-07 06:47 | -13.55100 | -177.75290 | 34888 ft | 533 kts | 44° |
| 2026-05-07 06:47 | -13.49934 | -177.69832 | 34888 ft | 533 kts | 44° |
| 2026-05-07 06:48 | -13.44766 | -177.64376 | 34888 ft | 532 kts | 44° |
| 2026-05-07 06:48 | -13.39608 | -177.58927 | 34888 ft | 532 kts | 44° |
| 2026-05-07 06:49 | -13.34445 | -177.53478 | 34887 ft | 531 kts | 44° |
| 2026-05-07 06:49 | -13.29293 | -177.48046 | 34888 ft | 530 kts | 44° |
| 2026-05-07 06:50 | -13.24147 | -177.42622 | 34888 ft | 530 kts | 44° |
| 2026-05-07 06:50 | -13.19007 | -177.37209 | 34888 ft | 529 kts | 44° |
| 2026-05-07 06:51 | -13.13899 | -177.31830 | 34888 ft | 530 kts | 44° |
| 2026-05-07 06:51 | -13.08757 | -177.26419 | 34888 ft | 529 kts | 43° |
| 2026-05-07 06:52 | -13.03617 | -177.21018 | 34888 ft | 528 kts | 43° |
| 2026-05-07 06:52 | -12.98480 | -177.15624 | 34888 ft | 528 kts | 43° |
| 2026-05-07 06:53 | -12.93343 | -177.10231 | 34888 ft | 528 kts | 43° |
| 2026-05-07 06:53 | -12.88219 | -177.04856 | 34888 ft | 527 kts | 43° |
| 2026-05-07 06:54 | -12.83091 | -176.99478 | 34887 ft | 527 kts | 43° |
| 2026-05-07 06:54 | -12.77955 | -176.94098 | 34888 ft | 527 kts | 43° |
| 2026-05-07 06:55 | -12.72833 | -176.88736 | 34888 ft | 527 kts | 43° |
| 2026-05-07 06:55 | -12.67710 | -176.83368 | 34888 ft | 526 kts | 43° |
| 2026-05-07 06:56 | -12.62628 | -176.78052 | 34888 ft | 526 kts | 43° |
| 2026-05-07 06:56 | -12.57507 | -176.72701 | 34888 ft | 526 kts | 43° |
| 2026-05-07 06:57 | -12.52387 | -176.67357 | 34888 ft | 525 kts | 43° |
| 2026-05-07 06:57 | -12.47274 | -176.62018 | 34888 ft | 525 kts | 43° |
| 2026-05-07 06:58 | -12.42165 | -176.56670 | 34888 ft | 525 kts | 43° |
| 2026-05-07 06:58 | -12.37057 | -176.51332 | 34888 ft | 525 kts | 43° |
| 2026-05-07 06:59 | -12.31951 | -176.46000 | 34888 ft | 524 kts | 43° |
| 2026-05-07 06:59 | -12.26847 | -176.40673 | 34888 ft | 524 kts | 43° |
| 2026-05-07 07:00 | -12.21743 | -176.35351 | 34888 ft | 524 kts | 43° |
| 2026-05-07 07:00 | -12.16668 | -176.30066 | 34888 ft | 523 kts | 43° |
| 2026-05-07 07:01 | -12.11575 | -176.24759 | 34888 ft | 524 kts | 43° |
| 2026-05-07 07:01 | -12.06471 | -176.19444 | 34888 ft | 523 kts | 43° |
| 2026-05-07 07:02 | -12.01370 | -176.14140 | 34888 ft | 523 kts | 43° |
| 2026-05-07 07:02 | -11.96275 | -176.08844 | 34888 ft | 523 kts | 43° |
| 2026-05-07 07:03 | -11.92034 | -176.04437 | 34887 ft | 523 kts | 43° |
| 2026-05-07 07:03 | -11.86932 | -175.99134 | 34888 ft | 523 kts | 43° |
| 2026-05-07 07:04 | -11.81003 | -175.92977 | 34888 ft | 523 kts | 43° |
| 2026-05-07 07:04 | -11.76725 | -175.88536 | 34888 ft | 523 kts | 43° |
| 2026-05-07 07:05 | -11.71655 | -175.83282 | 34889 ft | 522 kts | 43° |
| 2026-05-07 07:05 | -11.66554 | -175.77997 | 34887 ft | 522 kts | 43° |
| 2026-05-07 07:06 | -11.61456 | -175.72720 | 34888 ft | 522 kts | 43° |
| 2026-05-07 07:06 | -11.56363 | -175.67446 | 34888 ft | 522 kts | 43° |
| 2026-05-07 07:07 | -11.51266 | -175.62174 | 34888 ft | 522 kts | 43° |
| 2026-05-07 07:07 | -11.46164 | -175.56896 | 34888 ft | 522 kts | 43° |
| 2026-05-07 07:08 | -11.41066 | -175.51627 | 34887 ft | 522 kts | 43° |
| 2026-05-07 07:08 | -11.35964 | -175.46359 | 34888 ft | 522 kts | 43° |
| 2026-05-07 07:09 | -11.30860 | -175.41091 | 34888 ft | 523 kts | 43° |
| 2026-05-07 07:09 | -11.25743 | -175.35809 | 34888 ft | 523 kts | 43° |
| 2026-05-07 07:10 | -11.20642 | -175.30544 | 34888 ft | 522 kts | 43° |
| 2026-05-07 07:10 | -11.15534 | -175.25282 | 34887 ft | 522 kts | 43° |
| 2026-05-07 07:11 | -11.10456 | -175.20054 | 34888 ft | 522 kts | 42° |
| 2026-05-07 07:11 | -11.05344 | -175.14795 | 34888 ft | 522 kts | 42° |
| 2026-05-07 07:12 | -11.00237 | -175.09537 | 34888 ft | 522 kts | 43° |
| 2026-05-07 07:12 | -10.95127 | -175.04278 | 34888 ft | 522 kts | 43° |
| 2026-05-07 07:13 | -10.90012 | -174.99019 | 34888 ft | 522 kts | 43° |
| 2026-05-07 07:13 | -10.84894 | -174.93761 | 34888 ft | 522 kts | 42° |
| 2026-05-07 07:14 | -10.79815 | -174.88545 | 34888 ft | 522 kts | 42° |
| 2026-05-07 07:14 | -10.74703 | -174.83298 | 34888 ft | 522 kts | 42° |
| 2026-05-07 07:15 | -10.69598 | -174.78060 | 34888 ft | 522 kts | 42° |
| 2026-05-07 07:15 | -10.64475 | -174.72808 | 34889 ft | 522 kts | 42° |
| 2026-05-07 07:16 | -10.59358 | -174.67565 | 34888 ft | 522 kts | 42° |
| 2026-05-07 07:16 | -10.54237 | -174.62317 | 34888 ft | 522 kts | 42° |
| 2026-05-07 07:17 | -10.49125 | -174.57083 | 34887 ft | 522 kts | 42° |
| 2026-05-07 07:17 | -10.43993 | -174.51840 | 34904 ft | 522 kts | 42° |
| 2026-05-07 07:18 | -10.38913 | -174.46642 | 34907 ft | 522 kts | 42° |
| 2026-05-07 07:18 | -10.33796 | -174.41407 | 34907 ft | 522 kts | 42° |
| 2026-05-07 07:19 | -10.28669 | -174.36174 | 34907 ft | 521 kts | 42° |
| 2026-05-07 07:19 | -10.23551 | -174.30947 | 34906 ft | 522 kts | 42° |
| 2026-05-07 07:20 | -10.18431 | -174.25716 | 34906 ft | 522 kts | 42° |
| 2026-05-07 07:20 | -10.13315 | -174.20492 | 34906 ft | 522 kts | 42° |
| 2026-05-07 07:21 | -10.08216 | -174.15289 | 34906 ft | 521 kts | 42° |
| 2026-05-07 07:21 | -10.03097 | -174.10074 | 34906 ft | 522 kts | 42° |
| 2026-05-07 07:22 | -9.97966 | -174.04850 | 34906 ft | 522 kts | 42° |
| 2026-05-07 07:22 | -9.92844 | -173.99633 | 34906 ft | 522 kts | 42° |
| 2026-05-07 07:23 | -9.87714 | -173.94413 | 34906 ft | 522 kts | 42° |
| 2026-05-07 07:23 | -9.82584 | -173.89190 | 34907 ft | 522 kts | 42° |
| 2026-05-07 07:24 | -9.77465 | -173.83987 | 34906 ft | 522 kts | 42° |
| 2026-05-07 07:24 | -9.72361 | -173.78800 | 34906 ft | 522 kts | 42° |
| 2026-05-07 07:25 | -9.64670 | -173.70985 | 34907 ft | 522 kts | 42° |
| 2026-05-07 07:26 | -9.59534 | -173.65771 | 34906 ft | 522 kts | 42° |
| 2026-05-07 07:26 | -9.54401 | -173.60562 | 34906 ft | 521 kts | 42° |
| 2026-05-07 07:27 | -9.49276 | -173.55361 | 34907 ft | 521 kts | 42° |
| 2026-05-07 07:27 | -9.44147 | -173.50161 | 34906 ft | 521 kts | 42° |
| 2026-05-07 07:28 | -9.39053 | -173.45000 | 34906 ft | 521 kts | 42° |
| 2026-05-07 07:28 | -9.33934 | -173.39815 | 34907 ft | 521 kts | 42° |
| 2026-05-07 07:29 | -9.28807 | -173.34625 | 34906 ft | 521 kts | 42° |
| 2026-05-07 07:29 | -9.23686 | -173.29441 | 34906 ft | 521 kts | 41° |
| 2026-05-07 07:30 | -9.18553 | -173.24248 | 34906 ft | 521 kts | 41° |
| 2026-05-07 07:30 | -9.13424 | -173.19062 | 34906 ft | 520 kts | 41° |
| 2026-05-07 07:31 | -9.08330 | -173.13916 | 34907 ft | 520 kts | 41° |
| 2026-05-07 07:31 | -9.03203 | -173.08733 | 34906 ft | 521 kts | 41° |
| 2026-05-07 07:32 | -8.98081 | -173.03562 | 34906 ft | 520 kts | 41° |
| 2026-05-07 07:32 | -8.92952 | -172.98385 | 34906 ft | 520 kts | 41° |
| 2026-05-07 07:33 | -8.87834 | -172.93219 | 34907 ft | 520 kts | 41° |
| 2026-05-07 07:33 | -8.82703 | -172.88040 | 34906 ft | 520 kts | 41° |
| 2026-05-07 07:34 | -8.77573 | -172.82867 | 34906 ft | 520 kts | 41° |
| 2026-05-07 07:34 | -8.72457 | -172.77712 | 34907 ft | 520 kts | 41° |
| 2026-05-07 07:35 | -8.67335 | -172.72554 | 34907 ft | 519 kts | 41° |
| 2026-05-07 07:35 | -8.62220 | -172.67406 | 34906 ft | 519 kts | 41° |
| 2026-05-07 07:36 | -8.57128 | -172.62279 | 34907 ft | 519 kts | 41° |
| 2026-05-07 07:36 | -8.52011 | -172.57128 | 34906 ft | 519 kts | 41° |
| 2026-05-07 07:37 | -8.46894 | -172.51981 | 34907 ft | 519 kts | 41° |
| 2026-05-07 07:37 | -8.41773 | -172.46832 | 34907 ft | 519 kts | 41° |
| 2026-05-07 07:38 | -8.36661 | -172.41691 | 34906 ft | 518 kts | 41° |
| 2026-05-07 07:38 | -8.31547 | -172.36558 | 34907 ft | 518 kts | 41° |
| 2026-05-07 07:39 | -8.26319 | -172.31568 | 34907 ft | 517 kts | 38° |
| 2026-05-07 07:39 | -8.20972 | -172.26731 | 34907 ft | 516 kts | 38° |
| 2026-05-07 07:40 | -8.15621 | -172.21874 | 34907 ft | 516 kts | 38° |
| 2026-05-07 07:40 | -8.10305 | -172.16994 | 34906 ft | 516 kts | 39° |
| 2026-05-07 07:41 | -8.05006 | -172.12108 | 34906 ft | 516 kts | 39° |
| 2026-05-07 07:41 | -7.99739 | -172.07253 | 34906 ft | 516 kts | 39° |
| 2026-05-07 07:42 | -7.94438 | -172.02373 | 34907 ft | 516 kts | 39° |
| 2026-05-07 07:42 | -7.89128 | -171.97491 | 34913 ft | 516 kts | 39° |
| 2026-05-07 07:43 | -7.83819 | -171.92611 | 34916 ft | 516 kts | 39° |
| 2026-05-07 07:43 | -7.78514 | -171.87735 | 34914 ft | 516 kts | 39° |
| 2026-05-07 07:44 | -7.73207 | -171.82856 | 34916 ft | 516 kts | 39° |
| 2026-05-07 07:44 | -7.67939 | -171.78019 | 34916 ft | 515 kts | 39° |
| 2026-05-07 07:45 | -7.62645 | -171.73159 | 34916 ft | 515 kts | 39° |
| 2026-05-07 07:45 | -7.57356 | -171.68299 | 34916 ft | 515 kts | 39° |
| 2026-05-07 07:46 | -7.52052 | -171.63431 | 34915 ft | 514 kts | 39° |
| 2026-05-07 07:46 | -7.46758 | -171.58573 | 34916 ft | 515 kts | 39° |
| 2026-05-07 07:47 | -7.41476 | -171.53728 | 34915 ft | 514 kts | 39° |
| 2026-05-07 07:47 | -7.36186 | -171.48879 | 34917 ft | 513 kts | 39° |
| 2026-05-07 07:48 | -7.30940 | -171.44070 | 34915 ft | 513 kts | 39° |
| 2026-05-07 07:48 | -7.25664 | -171.39236 | 34916 ft | 512 kts | 39° |
| 2026-05-07 07:49 | -7.20385 | -171.34401 | 34916 ft | 512 kts | 39° |
| 2026-05-07 07:49 | -7.15113 | -171.29575 | 34916 ft | 512 kts | 39° |
| 2026-05-07 07:50 | -7.09838 | -171.24747 | 34916 ft | 511 kts | 39° |
| 2026-05-07 07:50 | -7.04571 | -171.19929 | 34916 ft | 511 kts | 39° |
| 2026-05-07 07:51 | -6.99304 | -171.15120 | 34916 ft | 511 kts | 39° |
| 2026-05-07 07:51 | -6.94935 | -171.11121 | 34916 ft | 511 kts | 39° |
| 2026-05-07 07:52 | -6.88821 | -171.05527 | 34916 ft | 510 kts | 39° |
| 2026-05-07 07:52 | -6.83564 | -171.00724 | 34916 ft | 510 kts | 39° |
| 2026-05-07 07:53 | -6.79158 | -170.96699 | 34915 ft | 510 kts | 39° |
| 2026-05-07 07:53 | -6.73901 | -170.91898 | 34916 ft | 510 kts | 39° |
| 2026-05-07 07:54 | -6.68684 | -170.87135 | 34915 ft | 510 kts | 39° |
| 2026-05-07 07:54 | -6.63426 | -170.82336 | 34915 ft | 510 kts | 39° |
| 2026-05-07 07:55 | -6.58169 | -170.77543 | 34915 ft | 510 kts | 39° |
| 2026-05-07 07:55 | -6.52916 | -170.72750 | 34916 ft | 510 kts | 39° |
| 2026-05-07 07:56 | -6.47667 | -170.67961 | 34916 ft | 510 kts | 39° |
| 2026-05-07 07:56 | -6.42415 | -170.63169 | 34915 ft | 509 kts | 39° |
| 2026-05-07 07:57 | -6.37161 | -170.58381 | 34915 ft | 510 kts | 39° |
| 2026-05-07 07:57 | -6.31938 | -170.53627 | 34916 ft | 510 kts | 39° |
| 2026-05-07 07:58 | -6.26679 | -170.48839 | 34915 ft | 510 kts | 39° |
| 2026-05-07 07:58 | -6.21420 | -170.44048 | 34915 ft | 510 kts | 39° |
| 2026-05-07 07:59 | -6.16168 | -170.39265 | 34916 ft | 510 kts | 39° |
| 2026-05-07 07:59 | -6.10901 | -170.34473 | 34916 ft | 510 kts | 39° |
| 2026-05-07 08:00 | -6.05642 | -170.29690 | 34916 ft | 509 kts | 39° |
| 2026-05-07 08:00 | -6.00387 | -170.24908 | 34915 ft | 509 kts | 39° |
| 2026-05-07 08:01 | -5.95132 | -170.20130 | 34915 ft | 509 kts | 39° |
| 2026-05-07 08:01 | -5.89901 | -170.15320 | 34915 ft | 510 kts | 40° |
| 2026-05-07 08:02 | -5.84723 | -170.10463 | 34916 ft | 509 kts | 40° |
| 2026-05-07 08:02 | -5.79572 | -170.05636 | 34916 ft | 510 kts | 40° |
| 2026-05-07 08:03 | -5.74360 | -170.00782 | 34915 ft | 510 kts | 40° |
| 2026-05-07 08:03 | -5.69153 | -169.95937 | 34916 ft | 509 kts | 40° |
| 2026-05-07 08:04 | -5.63950 | -169.91095 | 34915 ft | 509 kts | 40° |
| 2026-05-07 08:04 | -5.58753 | -169.86258 | 34915 ft | 509 kts | 40° |
| 2026-05-07 08:05 | -5.53556 | -169.81423 | 34916 ft | 509 kts | 40° |
| 2026-05-07 08:05 | -5.48364 | -169.76595 | 34917 ft | 509 kts | 40° |
| 2026-05-07 08:06 | -5.43204 | -169.71797 | 34915 ft | 509 kts | 40° |
| 2026-05-07 08:06 | -5.38012 | -169.66973 | 34915 ft | 509 kts | 40° |
| 2026-05-07 08:07 | -5.32814 | -169.62145 | 34915 ft | 509 kts | 41° |
| 2026-05-07 08:07 | -5.27623 | -169.57318 | 34915 ft | 509 kts | 41° |
| 2026-05-07 08:08 | -5.22433 | -169.52499 | 34916 ft | 508 kts | 41° |
| 2026-05-07 08:08 | -5.17238 | -169.47675 | 34915 ft | 508 kts | 41° |
| 2026-05-07 08:09 | -5.12047 | -169.42859 | 34916 ft | 508 kts | 41° |
| 2026-05-07 08:09 | -5.06862 | -169.38047 | 34916 ft | 507 kts | 41° |
| 2026-05-07 08:10 | -5.01717 | -169.33271 | 34916 ft | 507 kts | 41° |
| 2026-05-07 08:10 | -4.96537 | -169.28454 | 34915 ft | 507 kts | 41° |
| 2026-05-07 08:11 | -4.91401 | -169.23607 | 34916 ft | 507 kts | 42° |
| 2026-05-07 08:11 | -4.86260 | -169.18747 | 34915 ft | 507 kts | 41° |
| 2026-05-07 08:12 | -4.81155 | -169.13935 | 34915 ft | 507 kts | 41° |
| 2026-05-07 08:12 | -4.75982 | -169.09067 | 34919 ft | 507 kts | 41° |
| 2026-05-07 08:13 | -4.70843 | -169.04235 | 34915 ft | 506 kts | 41° |
| 2026-05-07 08:13 | -4.65732 | -168.99428 | 34915 ft | 506 kts | 42° |
| 2026-05-07 08:14 | -4.60601 | -168.94603 | 34915 ft | 506 kts | 42° |
| 2026-05-07 08:14 | -4.55461 | -168.89770 | 34916 ft | 506 kts | 42° |
| 2026-05-07 08:15 | -4.50324 | -168.84944 | 34915 ft | 505 kts | 41° |
| 2026-05-07 08:15 | -4.45202 | -168.80129 | 34915 ft | 505 kts | 41° |
| 2026-05-07 08:16 | -4.40077 | -168.75311 | 34915 ft | 505 kts | 41° |
| 2026-05-07 08:16 | -4.34951 | -168.70500 | 34916 ft | 504 kts | 41° |
| 2026-05-07 08:17 | -4.29855 | -168.65713 | 34916 ft | 504 kts | 41° |
| 2026-05-07 08:17 | -4.24741 | -168.60911 | 34918 ft | 504 kts | 41° |
| 2026-05-07 08:18 | -4.19620 | -168.56109 | 34925 ft | 504 kts | 42° |
| 2026-05-07 08:18 | -4.14506 | -168.51304 | 34925 ft | 503 kts | 42° |
| 2026-05-07 08:19 | -4.09394 | -168.46503 | 34927 ft | 503 kts | 42° |
| 2026-05-07 08:19 | -4.04293 | -168.41712 | 34924 ft | 503 kts | 41° |
| 2026-05-07 08:20 | -3.99222 | -168.36958 | 34925 ft | 502 kts | 41° |
| 2026-05-07 08:20 | -3.94114 | -168.32173 | 34925 ft | 502 kts | 42° |
| 2026-05-07 08:21 | -3.89017 | -168.27395 | 34925 ft | 501 kts | 42° |
| 2026-05-07 08:21 | -3.83927 | -168.22622 | 34925 ft | 502 kts | 41° |
| 2026-05-07 08:22 | -3.78835 | -168.17847 | 34925 ft | 501 kts | 41° |
| 2026-05-07 08:22 | -3.73743 | -168.13074 | 34924 ft | 501 kts | 42° |
| 2026-05-07 08:23 | -3.68657 | -168.08308 | 34925 ft | 501 kts | 42° |
| 2026-05-07 08:23 | -3.63556 | -168.03528 | 34925 ft | 502 kts | 42° |
| 2026-05-07 08:24 | -3.58461 | -167.98753 | 34925 ft | 502 kts | 42° |
| 2026-05-07 08:24 | -3.53369 | -167.93982 | 34925 ft | 501 kts | 42° |
| 2026-05-07 08:25 | -3.48302 | -167.89237 | 34925 ft | 501 kts | 42° |
| 2026-05-07 08:25 | -3.43203 | -167.84463 | 34924 ft | 501 kts | 42° |
| 2026-05-07 08:26 | -3.35563 | -167.77314 | 34924 ft | 501 kts | 42° |
| 2026-05-07 08:26 | -3.30514 | -167.72497 | 34924 ft | 501 kts | 43° |
| 2026-05-07 08:27 | -3.25502 | -167.67647 | 34925 ft | 501 kts | 43° |
| 2026-05-07 08:27 | -3.20485 | -167.62815 | 34925 ft | 500 kts | 43° |
| 2026-05-07 08:28 | -3.15459 | -167.57992 | 34925 ft | 500 kts | 43° |
| 2026-05-07 08:28 | -3.10464 | -167.53203 | 34924 ft | 500 kts | 43° |
| 2026-05-07 08:29 | -3.05439 | -167.48385 | 34926 ft | 500 kts | 43° |
| 2026-05-07 08:29 | -3.00425 | -167.43577 | 34925 ft | 499 kts | 43° |
| 2026-05-07 08:30 | -2.95405 | -167.38764 | 34924 ft | 500 kts | 43° |
| 2026-05-07 08:30 | -2.90380 | -167.33943 | 34925 ft | 500 kts | 43° |
| 2026-05-07 08:31 | -2.85353 | -167.29126 | 34924 ft | 500 kts | 43° |
| 2026-05-07 08:31 | -2.80332 | -167.24314 | 34925 ft | 500 kts | 43° |
| 2026-05-07 08:32 | -2.75341 | -167.19534 | 34924 ft | 499 kts | 43° |
| 2026-05-07 08:32 | -2.70323 | -167.14728 | 34925 ft | 499 kts | 43° |
| 2026-05-07 08:33 | -2.65302 | -167.09918 | 34925 ft | 499 kts | 43° |
| 2026-05-07 08:33 | -2.60294 | -167.05121 | 34924 ft | 499 kts | 43° |
| 2026-05-07 08:34 | -2.55281 | -167.00324 | 34925 ft | 498 kts | 43° |
| 2026-05-07 08:34 | -2.50277 | -166.95530 | 34925 ft | 498 kts | 43° |
| 2026-05-07 08:35 | -2.45279 | -166.90742 | 34925 ft | 498 kts | 43° |
| 2026-05-07 08:35 | -2.40273 | -166.85947 | 34925 ft | 498 kts | 43° |
| 2026-05-07 08:36 | -2.35266 | -166.81155 | 34925 ft | 498 kts | 43° |
| 2026-05-07 08:36 | -2.30295 | -166.76394 | 34926 ft | 498 kts | 43° |
| 2026-05-07 08:37 | -2.25284 | -166.71600 | 34925 ft | 498 kts | 43° |
| 2026-05-07 08:37 | -2.20281 | -166.66814 | 34925 ft | 497 kts | 43° |
| 2026-05-07 08:38 | -2.15287 | -166.62035 | 34925 ft | 497 kts | 43° |
| 2026-05-07 08:38 | -2.10323 | -166.57280 | 34925 ft | 497 kts | 43° |
| 2026-05-07 08:39 | -2.05332 | -166.52509 | 34925 ft | 496 kts | 43° |
| 2026-05-07 08:39 | -2.00334 | -166.47732 | 34926 ft | 496 kts | 43° |
| 2026-05-07 08:40 | -1.96187 | -166.43765 | 34927 ft | 496 kts | 43° |
| 2026-05-07 08:40 | -1.91217 | -166.39004 | 34925 ft | 495 kts | 43° |
| 2026-05-07 08:41 | -1.86240 | -166.34238 | 34925 ft | 495 kts | 43° |
| 2026-05-07 08:41 | -1.81264 | -166.29482 | 34925 ft | 495 kts | 43° |
| 2026-05-07 08:42 | -1.76290 | -166.24723 | 34925 ft | 495 kts | 43° |
| 2026-05-07 08:42 | -1.71313 | -166.19966 | 34924 ft | 495 kts | 43° |
| 2026-05-07 08:43 | -1.66333 | -166.15211 | 34924 ft | 495 kts | 43° |
| 2026-05-07 08:43 | -1.61388 | -166.10481 | 34925 ft | 495 kts | 43° |
| 2026-05-07 08:44 | -1.56415 | -166.05724 | 34924 ft | 495 kts | 43° |
| 2026-05-07 08:44 | -1.51442 | -166.00968 | 34925 ft | 495 kts | 43° |
| 2026-05-07 08:45 | -1.46466 | -165.96210 | 34924 ft | 495 kts | 43° |
| 2026-05-07 08:45 | -1.41485 | -165.91449 | 34925 ft | 495 kts | 43° |
| 2026-05-07 08:46 | -1.36511 | -165.86694 | 34924 ft | 495 kts | 43° |
| 2026-05-07 08:46 | -1.31562 | -165.81964 | 34928 ft | 495 kts | 43° |
| 2026-05-07 08:47 | -1.26589 | -165.77210 | 34925 ft | 495 kts | 43° |
| 2026-05-07 08:47 | -1.21614 | -165.72460 | 34925 ft | 495 kts | 43° |
| 2026-05-07 08:48 | -1.16630 | -165.67700 | 34925 ft | 494 kts | 43° |
| 2026-05-07 08:48 | -1.11662 | -165.62949 | 34925 ft | 495 kts | 43° |
| 2026-05-07 08:49 | -1.06682 | -165.58191 | 34925 ft | 494 kts | 43° |
| 2026-05-07 08:49 | -1.01743 | -165.53474 | 34924 ft | 495 kts | 43° |
| 2026-05-07 08:50 | -0.96765 | -165.48720 | 34928 ft | 494 kts | 43° |
| 2026-05-07 08:50 | -0.91791 | -165.43969 | 34925 ft | 495 kts | 43° |
| 2026-05-07 08:51 | -0.86815 | -165.39216 | 34925 ft | 495 kts | 43° |
| 2026-05-07 08:51 | -0.81845 | -165.34469 | 34925 ft | 495 kts | 43° |
| 2026-05-07 08:52 | -0.76873 | -165.29721 | 34925 ft | 494 kts | 43° |
| 2026-05-07 08:52 | -0.71907 | -165.24967 | 34924 ft | 494 kts | 43° |
| 2026-05-07 08:53 | -0.66936 | -165.20222 | 34926 ft | 494 kts | 43° |
| 2026-05-07 08:53 | -0.61959 | -165.15471 | 34925 ft | 495 kts | 43° |
| 2026-05-07 08:54 | -0.57012 | -165.10749 | 34924 ft | 495 kts | 43° |
| 2026-05-07 08:54 | -0.52035 | -165.06001 | 34925 ft | 495 kts | 43° |
| 2026-05-07 08:55 | -0.47065 | -165.01253 | 34925 ft | 494 kts | 43° |
| 2026-05-07 08:55 | -0.42091 | -164.96502 | 34925 ft | 495 kts | 43° |
| 2026-05-07 08:56 | -0.37117 | -164.91748 | 34925 ft | 494 kts | 43° |
| 2026-05-07 08:56 | -0.32148 | -164.86998 | 34925 ft | 494 kts | 43° |
| 2026-05-07 08:57 | -0.27182 | -164.82256 | 34925 ft | 494 kts | 43° |
| 2026-05-07 08:57 | -0.22210 | -164.77507 | 34925 ft | 494 kts | 43° |
| 2026-05-07 08:58 | -0.17237 | -164.72760 | 34925 ft | 494 kts | 43° |
| 2026-05-07 08:58 | -0.12289 | -164.68034 | 34927 ft | 495 kts | 43° |
| 2026-05-07 08:59 | -0.07322 | -164.63289 | 34924 ft | 494 kts | 43° |
| 2026-05-07 08:59 | -0.02347 | -164.58541 | 34925 ft | 494 kts | 43° |
| 2026-05-07 09:00 | 0.02626 | -164.53794 | 34924 ft | 494 kts | 43° |
| 2026-05-07 09:00 | 0.07592 | -164.49051 | 34925 ft | 493 kts | 43° |
| 2026-05-07 09:01 | 0.12571 | -164.44324 | 34925 ft | 494 kts | 43° |
| 2026-05-07 09:01 | 0.17543 | -164.39648 | 34925 ft | 494 kts | 43° |
| 2026-05-07 09:02 | 0.22579 | -164.34909 | 34924 ft | 494 kts | 43° |
| 2026-05-07 09:02 | 0.27578 | -164.30198 | 34925 ft | 494 kts | 43° |
| 2026-05-07 09:03 | 0.32550 | -164.25507 | 34926 ft | 494 kts | 43° |
| 2026-05-07 09:03 | 0.37542 | -164.20800 | 34925 ft | 493 kts | 43° |
| 2026-05-07 09:04 | 0.42534 | -164.16097 | 34925 ft | 493 kts | 43° |
| 2026-05-07 09:04 | 0.47528 | -164.11390 | 34925 ft | 493 kts | 43° |
| 2026-05-07 09:05 | 0.52485 | -164.06714 | 34924 ft | 493 kts | 43° |
| 2026-05-07 09:05 | 0.57480 | -164.02003 | 34925 ft | 493 kts | 43° |
| 2026-05-07 09:06 | 0.62474 | -163.97296 | 34924 ft | 493 kts | 43° |
| 2026-05-07 09:06 | 0.67458 | -163.92598 | 34926 ft | 492 kts | 43° |
| 2026-05-07 09:07 | 0.72439 | -163.87901 | 34924 ft | 492 kts | 43° |
| 2026-05-07 09:07 | 0.77422 | -163.83199 | 34925 ft | 492 kts | 43° |
| 2026-05-07 09:08 | 0.82375 | -163.78526 | 34925 ft | 492 kts | 43° |
| 2026-05-07 09:08 | 0.87350 | -163.73835 | 34925 ft | 491 kts | 43° |
| 2026-05-07 09:09 | 0.92324 | -163.69141 | 34925 ft | 491 kts | 43° |
| 2026-05-07 09:09 | 0.97291 | -163.64458 | 34924 ft | 491 kts | 43° |
| 2026-05-07 09:10 | 1.02259 | -163.59771 | 34925 ft | 491 kts | 43° |
| 2026-05-07 09:10 | 1.07229 | -163.55084 | 34928 ft | 491 kts | 43° |
| 2026-05-07 09:11 | 1.12172 | -163.50424 | 34925 ft | 491 kts | 43° |
| 2026-05-07 09:11 | 1.17147 | -163.45730 | 34925 ft | 491 kts | 43° |
| 2026-05-07 09:12 | 1.22115 | -163.41046 | 34925 ft | 491 kts | 43° |
| 2026-05-07 09:12 | 1.27087 | -163.36354 | 34925 ft | 491 kts | 43° |
| 2026-05-07 09:13 | 1.32032 | -163.31690 | 34925 ft | 491 kts | 43° |
| 2026-05-07 09:13 | 1.36997 | -163.27006 | 34924 ft | 491 kts | 43° |
| 2026-05-07 09:14 | 1.41965 | -163.22318 | 34925 ft | 491 kts | 43° |
| 2026-05-07 09:14 | 1.46929 | -163.17633 | 34925 ft | 491 kts | 43° |
| 2026-05-07 09:15 | 1.51900 | -163.12938 | 34924 ft | 491 kts | 43° |
| 2026-05-07 09:15 | 1.56873 | -163.08244 | 34924 ft | 491 kts | 43° |
| 2026-05-07 09:16 | 1.61841 | -163.03558 | 34925 ft | 491 kts | 43° |
| 2026-05-07 09:16 | 1.66805 | -162.98871 | 34925 ft | 491 kts | 43° |
| 2026-05-07 09:17 | 1.71769 | -162.94186 | 34925 ft | 491 kts | 43° |
| 2026-05-07 09:17 | 1.76710 | -162.89519 | 34924 ft | 490 kts | 43° |
| 2026-05-07 09:18 | 1.81665 | -162.84842 | 34925 ft | 490 kts | 43° |
| 2026-05-07 09:18 | 1.86642 | -162.80145 | 34925 ft | 491 kts | 43° |
| 2026-05-07 09:19 | 1.91616 | -162.75453 | 34925 ft | 491 kts | 43° |
| 2026-05-07 09:19 | 1.96583 | -162.70758 | 34924 ft | 491 kts | 43° |
| 2026-05-07 09:20 | 2.01550 | -162.66063 | 34933 ft | 491 kts | 43° |
| 2026-05-07 09:20 | 2.06495 | -162.61395 | 34933 ft | 492 kts | 43° |
| 2026-05-07 09:21 | 2.11471 | -162.56696 | 34933 ft | 492 kts | 43° |
| 2026-05-07 09:21 | 2.16444 | -162.51997 | 34936 ft | 492 kts | 43° |
| 2026-05-07 09:22 | 2.21422 | -162.47292 | 34934 ft | 492 kts | 43° |
| 2026-05-07 09:22 | 2.26395 | -162.42594 | 34934 ft | 492 kts | 43° |
| 2026-05-07 09:23 | 2.31373 | -162.37887 | 34933 ft | 492 kts | 43° |
| 2026-05-07 09:23 | 2.36329 | -162.33205 | 34938 ft | 493 kts | 43° |
| 2026-05-07 09:24 | 2.41312 | -162.28500 | 34934 ft | 493 kts | 43° |
| 2026-05-07 09:24 | 2.46295 | -162.23792 | 34934 ft | 493 kts | 43° |
| 2026-05-07 09:25 | 2.51275 | -162.19084 | 34934 ft | 493 kts | 43° |
| 2026-05-07 09:25 | 2.56256 | -162.14372 | 34934 ft | 493 kts | 43° |
| 2026-05-07 09:26 | 2.61237 | -162.09660 | 34934 ft | 493 kts | 43° |
| 2026-05-07 09:26 | 2.66221 | -162.04946 | 34937 ft | 493 kts | 43° |
| 2026-05-07 09:27 | 2.71202 | -162.00237 | 34934 ft | 493 kts | 43° |
| 2026-05-07 09:28 | 2.78674 | -161.93173 | 34933 ft | 493 kts | 43° |
| 2026-05-07 09:28 | 2.83626 | -161.88485 | 34933 ft | 493 kts | 43° |
| 2026-05-07 09:29 | 2.88601 | -161.83775 | 34937 ft | 493 kts | 43° |
| 2026-05-07 09:29 | 2.93592 | -161.79052 | 34934 ft | 493 kts | 43° |
| 2026-05-07 09:30 | 2.97734 | -161.75134 | 34934 ft | 493 kts | 43° |
| 2026-05-07 09:30 | 3.02712 | -161.70424 | 34934 ft | 493 kts | 43° |
| 2026-05-07 09:31 | 3.07697 | -161.65707 | 34934 ft | 493 kts | 43° |
| 2026-05-07 09:31 | 3.12685 | -161.61011 | 34934 ft | 493 kts | 43° |
| 2026-05-07 09:32 | 3.17676 | -161.56317 | 34933 ft | 493 kts | 43° |
| 2026-05-07 09:32 | 3.22673 | -161.51613 | 34934 ft | 493 kts | 43° |
| 2026-05-07 09:33 | 3.27643 | -161.46932 | 34934 ft | 493 kts | 43° |
| 2026-05-07 09:33 | 3.32632 | -161.42236 | 34933 ft | 493 kts | 43° |
| 2026-05-07 09:34 | 3.37630 | -161.37529 | 34933 ft | 493 kts | 43° |
| 2026-05-07 09:34 | 3.42620 | -161.32830 | 34934 ft | 493 kts | 43° |
| 2026-05-07 09:35 | 3.47623 | -161.28118 | 34936 ft | 493 kts | 43° |
| 2026-05-07 09:35 | 3.52615 | -161.23413 | 34937 ft | 493 kts | 43° |
| 2026-05-07 09:36 | 3.57609 | -161.18708 | 34926 ft | 493 kts | 43° |
| 2026-05-07 09:36 | 3.62604 | -161.14003 | 34927 ft | 493 kts | 43° |
| 2026-05-07 09:37 | 3.67565 | -161.09325 | 34924 ft | 493 kts | 43° |
| 2026-05-07 09:37 | 3.72558 | -161.04617 | 34925 ft | 493 kts | 43° |
| 2026-05-07 09:38 | 3.77553 | -160.99911 | 34925 ft | 493 kts | 43° |
| 2026-05-07 09:38 | 3.82548 | -160.95198 | 34925 ft | 493 kts | 43° |
| 2026-05-07 09:39 | 3.87540 | -160.90488 | 34925 ft | 493 kts | 43° |
| 2026-05-07 09:39 | 3.92537 | -160.85774 | 34925 ft | 493 kts | 43° |
| 2026-05-07 09:40 | 3.97531 | -160.81061 | 34925 ft | 493 kts | 43° |
| 2026-05-07 09:40 | 4.02493 | -160.76381 | 34925 ft | 493 kts | 43° |
| 2026-05-07 09:41 | 4.07484 | -160.71672 | 34925 ft | 493 kts | 43° |
| 2026-05-07 09:41 | 4.12486 | -160.66949 | 34924 ft | 494 kts | 43° |
| 2026-05-07 09:42 | 4.17482 | -160.62227 | 34924 ft | 494 kts | 43° |
| 2026-05-07 09:42 | 4.22475 | -160.57514 | 34925 ft | 494 kts | 43° |
| 2026-05-07 09:43 | 4.27478 | -160.52792 | 34924 ft | 493 kts | 43° |
| 2026-05-07 09:43 | 4.32468 | -160.48079 | 34925 ft | 493 kts | 43° |
| 2026-05-07 09:44 | 4.37451 | -160.43367 | 34925 ft | 493 kts | 43° |
| 2026-05-07 09:44 | 4.42409 | -160.38681 | 34925 ft | 493 kts | 43° |
| 2026-05-07 09:45 | 4.47392 | -160.33971 | 34925 ft | 493 kts | 43° |
| 2026-05-07 09:45 | 4.52384 | -160.29251 | 34925 ft | 493 kts | 43° |
| 2026-05-07 09:46 | 4.57367 | -160.24541 | 34925 ft | 493 kts | 43° |
| 2026-05-07 09:46 | 4.62356 | -160.19823 | 34925 ft | 493 kts | 43° |
| 2026-05-07 09:47 | 4.67357 | -160.15090 | 34924 ft | 493 kts | 43° |
| 2026-05-07 09:47 | 4.72351 | -160.10362 | 34925 ft | 493 kts | 43° |
| 2026-05-07 09:48 | 4.77347 | -160.05638 | 34929 ft | 494 kts | 43° |
| 2026-05-07 09:48 | 4.82342 | -160.00911 | 34925 ft | 493 kts | 43° |
| 2026-05-07 09:49 | 4.87300 | -159.96214 | 34925 ft | 494 kts | 43° |
| 2026-05-07 09:49 | 4.92291 | -159.91486 | 34927 ft | 494 kts | 43° |
| 2026-05-07 09:50 | 4.97297 | -159.86746 | 34925 ft | 494 kts | 43° |
| 2026-05-07 09:50 | 5.02291 | -159.82017 | 34925 ft | 493 kts | 43° |
| 2026-05-07 09:51 | 5.07243 | -159.77319 | 34925 ft | 493 kts | 43° |
| 2026-05-07 09:51 | 5.12233 | -159.72591 | 34924 ft | 494 kts | 43° |
| 2026-05-07 09:52 | 5.17229 | -159.67856 | 34925 ft | 494 kts | 43° |
| 2026-05-07 09:52 | 5.22215 | -159.63127 | 34924 ft | 493 kts | 43° |
| 2026-05-07 09:53 | 5.27206 | -159.58390 | 34925 ft | 493 kts | 43° |
| 2026-05-07 09:53 | 5.32201 | -159.53652 | 34934 ft | 493 kts | 43° |
| 2026-05-07 09:54 | 5.37182 | -159.48923 | 34934 ft | 493 kts | 43° |
| 2026-05-07 09:54 | 5.42163 | -159.44191 | 34934 ft | 493 kts | 43° |
| 2026-05-07 09:55 | 5.47156 | -159.39455 | 34934 ft | 493 kts | 43° |
| 2026-05-07 09:55 | 5.52133 | -159.34731 | 34934 ft | 493 kts | 43° |
| 2026-05-07 09:56 | 5.57091 | -159.30023 | 34934 ft | 493 kts | 43° |
| 2026-05-07 09:56 | 5.62078 | -159.25287 | 34934 ft | 494 kts | 43° |
| 2026-05-07 09:57 | 5.67068 | -159.20546 | 34934 ft | 494 kts | 43° |
| 2026-05-07 09:57 | 5.72060 | -159.15798 | 34934 ft | 494 kts | 43° |
| 2026-05-07 09:58 | 5.77054 | -159.11048 | 34934 ft | 494 kts | 43° |
| 2026-05-07 09:58 | 5.82045 | -159.06304 | 34942 ft | 494 kts | 43° |
| 2026-05-07 09:59 | 5.87037 | -159.01557 | 34942 ft | 494 kts | 43° |
| 2026-05-07 09:59 | 5.91999 | -158.96835 | 34940 ft | 494 kts | 43° |
| 2026-05-07 10:00 | 5.96984 | -158.92083 | 34937 ft | 493 kts | 42° |
| 2026-05-07 10:00 | 6.01987 | -158.87319 | 34939 ft | 495 kts | 43° |
| 2026-05-07 10:01 | 6.06977 | -158.82572 | 34944 ft | 495 kts | 43° |
| 2026-05-07 10:01 | 6.11960 | -158.77812 | 34940 ft | 495 kts | 43° |
| 2026-05-07 10:02 | 6.16962 | -158.73049 | 34940 ft | 495 kts | 43° |
| 2026-05-07 10:02 | 6.21968 | -158.68340 | 34945 ft | 495 kts | 42° |
| 2026-05-07 10:03 | 6.27006 | -158.63643 | 34942 ft | 494 kts | 42° |
| 2026-05-07 10:03 | 6.32040 | -158.58934 | 34947 ft | 494 kts | 42° |
| 2026-05-07 10:04 | 6.37074 | -158.54221 | 34940 ft | 494 kts | 42° |
| 2026-05-07 10:04 | 6.42099 | -158.49506 | 34944 ft | 494 kts | 42° |
| 2026-05-07 10:05 | 6.47128 | -158.44783 | 34942 ft | 495 kts | 43° |
| 2026-05-07 10:05 | 6.52164 | -158.40056 | 34948 ft | 495 kts | 43° |
| 2026-05-07 10:06 | 6.57208 | -158.35322 | 34940 ft | 495 kts | 43° |
| 2026-05-07 10:06 | 6.62212 | -158.30625 | 34951 ft | 495 kts | 43° |
| 2026-05-07 10:07 | 6.67244 | -158.25899 | 34951 ft | 494 kts | 43° |
| 2026-05-07 10:07 | 6.72280 | -158.21170 | 34950 ft | 495 kts | 43° |
| 2026-05-07 10:08 | 6.77306 | -158.16446 | 34952 ft | 495 kts | 43° |
| 2026-05-07 10:08 | 6.82335 | -158.11712 | 34954 ft | 495 kts | 43° |
| 2026-05-07 10:09 | 6.87366 | -158.06981 | 34950 ft | 495 kts | 43° |
| 2026-05-07 10:09 | 6.92401 | -158.02246 | 34953 ft | 495 kts | 43° |
| 2026-05-07 10:10 | 6.97401 | -157.97546 | 34951 ft | 495 kts | 43° |
| 2026-05-07 10:10 | 7.02439 | -157.92800 | 34953 ft | 495 kts | 43° |
| 2026-05-07 10:11 | 7.07472 | -157.88061 | 34950 ft | 495 kts | 43° |
| 2026-05-07 10:11 | 7.12499 | -157.83328 | 34955 ft | 494 kts | 43° |
| 2026-05-07 10:12 | 7.17487 | -157.78628 | 34957 ft | 494 kts | 43° |
| 2026-05-07 10:12 | 7.22508 | -157.73895 | 34958 ft | 494 kts | 43° |
| 2026-05-07 10:13 | 7.27538 | -157.69155 | 34960 ft | 494 kts | 43° |
| 2026-05-07 10:13 | 7.32557 | -157.64421 | 34960 ft | 494 kts | 43° |
| 2026-05-07 10:14 | 7.37580 | -157.59684 | 34963 ft | 495 kts | 43° |
| 2026-05-07 10:14 | 7.42597 | -157.54951 | 34961 ft | 494 kts | 43° |
| 2026-05-07 10:15 | 7.47613 | -157.50213 | 34962 ft | 494 kts | 43° |
| 2026-05-07 10:15 | 7.52600 | -157.45506 | 34961 ft | 494 kts | 43° |
| 2026-05-07 10:16 | 7.57619 | -157.40767 | 34971 ft | 494 kts | 43° |
| 2026-05-07 10:16 | 7.62641 | -157.36020 | 34971 ft | 494 kts | 43° |
| 2026-05-07 10:17 | 7.67656 | -157.31277 | 34971 ft | 494 kts | 43° |
| 2026-05-07 10:17 | 7.72677 | -157.26530 | 34972 ft | 495 kts | 43° |
| 2026-05-07 10:18 | 7.77692 | -157.21787 | 34971 ft | 494 kts | 43° |
| 2026-05-07 10:18 | 7.82709 | -157.17039 | 34971 ft | 494 kts | 43° |
| 2026-05-07 10:19 | 7.87690 | -157.12325 | 34976 ft | 494 kts | 43° |
| 2026-05-07 10:19 | 7.92711 | -157.07573 | 34980 ft | 495 kts | 43° |
| 2026-05-07 10:20 | 7.97731 | -157.02817 | 34980 ft | 495 kts | 43° |
| 2026-05-07 10:20 | 8.02758 | -156.98052 | 34979 ft | 496 kts | 43° |
| 2026-05-07 10:21 | 8.07779 | -156.93293 | 34980 ft | 498 kts | 44° |
| 2026-05-07 10:21 | 8.12838 | -156.88498 | 34980 ft | 499 kts | 44° |
| 2026-05-07 10:22 | 8.17080 | -156.84474 | 34981 ft | 500 kts | 44° |
| 2026-05-07 10:22 | 8.22113 | -156.79698 | 34980 ft | 500 kts | 44° |
| 2026-05-07 10:23 | 8.27173 | -156.74893 | 34999 ft | 500 kts | 44° |
| 2026-05-07 10:23 | 8.32249 | -156.70071 | 34986 ft | 500 kts | 44° |
| 2026-05-07 10:24 | 8.37319 | -156.65259 | 34988 ft | 500 kts | 44° |
| 2026-05-07 10:24 | 8.42386 | -156.60447 | 35001 ft | 501 kts | 44° |
| 2026-05-07 10:25 | 8.47453 | -156.55627 | 34985 ft | 501 kts | 44° |
| 2026-05-07 10:25 | 8.52540 | -156.50788 | 34985 ft | 500 kts | 44° |
| 2026-05-07 10:26 | 8.57582 | -156.45991 | 34999 ft | 501 kts | 44° |
| 2026-05-07 10:26 | 8.62663 | -156.41156 | 34984 ft | 502 kts | 44° |
| 2026-05-07 10:27 | 8.67747 | -156.36318 | 34985 ft | 502 kts | 44° |
| 2026-05-07 10:27 | 8.72836 | -156.31472 | 35004 ft | 503 kts | 44° |
| 2026-05-07 10:28 | 8.77930 | -156.26614 | 34994 ft | 503 kts | 44° |
| 2026-05-07 10:28 | 8.83037 | -156.21745 | 34994 ft | 505 kts | 44° |
| 2026-05-07 10:29 | 8.88141 | -156.16879 | 34994 ft | 505 kts | 44° |
| 2026-05-07 10:29 | 8.93233 | -156.12024 | 34996 ft | 507 kts | 44° |
| 2026-05-07 10:30 | 9.00945 | -156.04666 | 34999 ft | 509 kts | 44° |
| 2026-05-07 10:30 | 9.06095 | -155.99747 | 35012 ft | 510 kts | 44° |
| 2026-05-07 10:31 | 9.11256 | -155.94816 | 35008 ft | 511 kts | 44° |
| 2026-05-07 10:31 | 9.16442 | -155.89864 | 35003 ft | 513 kts | 44° |
| 2026-05-07 10:32 | 9.21606 | -155.84927 | 35015 ft | 514 kts | 44° |
| 2026-05-07 10:32 | 9.26814 | -155.79947 | 35019 ft | 515 kts | 44° |
| 2026-05-07 10:33 | 9.32055 | -155.74979 | 35017 ft | 517 kts | 44° |
| 2026-05-07 10:33 | 9.37316 | -155.70006 | 35018 ft | 517 kts | 44° |
| 2026-05-07 10:34 | 9.42582 | -155.65022 | 35019 ft | 518 kts | 44° |
| 2026-05-07 10:34 | 9.47845 | -155.60028 | 35015 ft | 518 kts | 44° |
| 2026-05-07 10:35 | 9.53111 | -155.55028 | 35016 ft | 519 kts | 44° |
| 2026-05-07 10:35 | 9.58348 | -155.50054 | 35028 ft | 519 kts | 44° |
| 2026-05-07 10:36 | 9.63624 | -155.45040 | 35026 ft | 519 kts | 44° |
| 2026-05-07 10:36 | 9.68892 | -155.40037 | 35026 ft | 519 kts | 44° |
| 2026-05-07 10:37 | 9.74165 | -155.35022 | 35026 ft | 519 kts | 44° |
| 2026-05-07 10:37 | 9.79441 | -155.30004 | 35026 ft | 519 kts | 44° |
| 2026-05-07 10:38 | 9.84715 | -155.24989 | 35026 ft | 519 kts | 44° |
| 2026-05-07 10:38 | 9.89976 | -155.19978 | 35026 ft | 519 kts | 44° |
| 2026-05-07 10:39 | 9.95235 | -155.14970 | 35035 ft | 518 kts | 43° |
| 2026-05-07 10:39 | 10.00489 | -155.09965 | 35056 ft | 518 kts | 44° |
| 2026-05-07 10:40 | 10.05759 | -155.04939 | 35119 ft | 522 kts | 44° |
| 2026-05-07 10:40 | 10.11096 | -154.99847 | 35069 ft | 529 kts | 43° |
| 2026-05-07 10:41 | 10.16420 | -154.94767 | 35014 ft | 528 kts | 43° |
| 2026-05-07 10:41 | 10.21783 | -154.89646 | 35003 ft | 529 kts | 43° |
| 2026-05-07 10:42 | 10.27139 | -154.84528 | 35004 ft | 529 kts | 43° |
| 2026-05-07 10:42 | 10.32502 | -154.79404 | 35014 ft | 528 kts | 43° |
| 2026-05-07 10:43 | 10.37857 | -154.74285 | 35015 ft | 528 kts | 43° |
| 2026-05-07 10:43 | 10.43207 | -154.69168 | 35024 ft | 528 kts | 43° |
| 2026-05-07 10:44 | 10.48562 | -154.64043 | 35015 ft | 529 kts | 43° |
| 2026-05-07 10:44 | 10.53887 | -154.58946 | 35019 ft | 529 kts | 43° |
| 2026-05-07 10:45 | 10.59248 | -154.53813 | 35018 ft | 530 kts | 43° |
| 2026-05-07 10:45 | 10.64613 | -154.48669 | 35015 ft | 530 kts | 43° |
| 2026-05-07 10:46 | 10.69981 | -154.43517 | 35025 ft | 531 kts | 43° |
| 2026-05-07 10:46 | 10.75361 | -154.38354 | 35026 ft | 531 kts | 43° |
| 2026-05-07 10:47 | 10.80741 | -154.33190 | 35025 ft | 532 kts | 43° |
| 2026-05-07 10:47 | 10.86127 | -154.28018 | 35030 ft | 533 kts | 43° |
| 2026-05-07 10:48 | 10.91493 | -154.22860 | 35029 ft | 534 kts | 43° |
| 2026-05-07 10:48 | 10.96908 | -154.17655 | 35025 ft | 536 kts | 43° |
| 2026-05-07 10:49 | 11.02335 | -154.12433 | 35025 ft | 537 kts | 43° |
| 2026-05-07 10:49 | 11.07783 | -154.07186 | 35035 ft | 539 kts | 43° |
| 2026-05-07 10:50 | 11.13238 | -154.01932 | 35035 ft | 541 kts | 43° |
| 2026-05-07 10:50 | 11.18719 | -153.96652 | 35038 ft | 543 kts | 43° |
| 2026-05-07 10:51 | 11.24217 | -153.91353 | 35035 ft | 545 kts | 43° |
| 2026-05-07 10:51 | 11.29730 | -153.86035 | 35037 ft | 546 kts | 43° |
| 2026-05-07 10:52 | 11.35228 | -153.80733 | 35035 ft | 548 kts | 43° |
| 2026-05-07 10:52 | 11.40761 | -153.75390 | 35036 ft | 549 kts | 43° |
| 2026-05-07 10:53 | 11.46306 | -153.70033 | 35040 ft | 549 kts | 43° |
| 2026-05-07 10:53 | 11.51863 | -153.64660 | 35046 ft | 550 kts | 43° |
| 2026-05-07 10:54 | 11.57410 | -153.59297 | 35046 ft | 550 kts | 43° |
| 2026-05-07 10:54 | 11.63011 | -153.53949 | 35045 ft | 551 kts | 42° |
| 2026-05-07 10:55 | 11.68590 | -153.48664 | 35044 ft | 551 kts | 42° |
| 2026-05-07 10:55 | 11.74239 | -153.43305 | 35046 ft | 551 kts | 42° |
| 2026-05-07 10:56 | 11.79806 | -153.38005 | 35045 ft | 551 kts | 43° |
| 2026-05-07 10:56 | 11.85418 | -153.32659 | 35046 ft | 550 kts | 42° |
| 2026-05-07 10:57 | 11.91010 | -153.27332 | 35052 ft | 551 kts | 42° |
| 2026-05-07 10:57 | 11.96620 | -153.21981 | 35054 ft | 551 kts | 43° |
| 2026-05-07 10:58 | 12.02221 | -153.16634 | 35055 ft | 551 kts | 42° |
| 2026-05-07 10:58 | 12.07824 | -153.11283 | 35055 ft | 553 kts | 42° |
| 2026-05-07 10:59 | 12.13455 | -153.05908 | 35054 ft | 553 kts | 42° |
| 2026-05-07 10:59 | 12.19075 | -153.00539 | 35054 ft | 554 kts | 42° |
| 2026-05-07 11:00 | 12.24706 | -152.95151 | 35055 ft | 554 kts | 42° |
| 2026-05-07 11:00 | 12.30333 | -152.89737 | 35054 ft | 554 kts | 43° |
| 2026-05-07 11:01 | 12.35631 | -152.84085 | 35055 ft | 554 kts | 46° |
| 2026-05-07 11:01 | 12.40867 | -152.78276 | 35063 ft | 555 kts | 46° |
| 2026-05-07 11:02 | 12.46130 | -152.72513 | 35290 ft | 553 kts | 46° |
| 2026-05-07 11:02 | 12.48772 | -152.69649 | 35521 ft | 552 kts | 45° |
| 2026-05-07 11:02 | 12.51411 | -152.66800 | 35757 ft | 552 kts | 45° |
| 2026-05-07 11:03 | 12.54053 | -152.63954 | 35991 ft | 551 kts | 45° |
| 2026-05-07 11:03 | 12.56697 | -152.61104 | 36206 ft | 550 kts | 45° |
| 2026-05-07 11:03 | 12.59331 | -152.58264 | 36415 ft | 550 kts | 45° |
| 2026-05-07 11:03 | 12.61948 | -152.55441 | 36609 ft | 550 kts | 45° |
| 2026-05-07 11:04 | 12.64588 | -152.52589 | 36825 ft | 548 kts | 45° |
| 2026-05-07 11:04 | 12.67207 | -152.49758 | 36998 ft | 548 kts | 45° |
| 2026-05-07 11:04 | 12.69830 | -152.46923 | 37202 ft | 547 kts | 45° |
| 2026-05-07 11:04 | 12.72439 | -152.44102 | 37429 ft | 545 kts | 45° |
| 2026-05-07 11:05 | 12.75049 | -152.41280 | 37654 ft | 544 kts | 45° |
| 2026-05-07 11:05 | 12.77611 | -152.38506 | 37869 ft | 542 kts | 45° |
| 2026-05-07 11:05 | 12.80206 | -152.35696 | 38083 ft | 541 kts | 45° |
| 2026-05-07 11:05 | 12.82785 | -152.32903 | 38274 ft | 539 kts | 45° |
| 2026-05-07 11:06 | 12.85363 | -152.30111 | 38466 ft | 538 kts | 45° |
| 2026-05-07 11:06 | 12.87932 | -152.27328 | 38641 ft | 536 kts | 45° |
| 2026-05-07 11:06 | 12.90487 | -152.24560 | 38790 ft | 536 kts | 45° |
| 2026-05-07 11:06 | 12.93057 | -152.21775 | 38876 ft | 537 kts | 45° |
| 2026-05-07 11:07 | 12.95619 | -152.18996 | 39006 ft | 537 kts | 45° |
| 2026-05-07 11:07 | 12.98183 | -152.16213 | 39062 ft | 537 kts | 45° |
| 2026-05-07 11:07 | 13.03316 | -152.10641 | 39064 ft | 536 kts | 45° |
| 2026-05-07 11:08 | 13.07573 | -152.06019 | 39063 ft | 536 kts | 44° |
| 2026-05-07 11:08 | 13.12705 | -152.00442 | 39065 ft | 537 kts | 44° |
| 2026-05-07 11:09 | 13.17835 | -151.94865 | 39063 ft | 536 kts | 44° |
| 2026-05-07 11:09 | 13.22955 | -151.89294 | 39065 ft | 536 kts | 44° |
| 2026-05-07 11:10 | 13.28061 | -151.83736 | 39064 ft | 536 kts | 44° |
| 2026-05-07 11:10 | 13.33188 | -151.78150 | 39063 ft | 537 kts | 44° |
| 2026-05-07 11:11 | 13.38308 | -151.72568 | 39064 ft | 536 kts | 44° |
| 2026-05-07 11:11 | 13.43401 | -151.67017 | 39074 ft | 537 kts | 44° |
| 2026-05-07 11:12 | 13.48517 | -151.61434 | 39072 ft | 537 kts | 44° |
| 2026-05-07 11:12 | 13.53627 | -151.55846 | 39073 ft | 537 kts | 44° |
| 2026-05-07 11:13 | 13.58747 | -151.50248 | 39072 ft | 537 kts | 44° |
| 2026-05-07 11:13 | 13.63861 | -151.44656 | 39072 ft | 537 kts | 44° |
| 2026-05-07 11:14 | 13.68946 | -151.39090 | 39072 ft | 536 kts | 44° |
| 2026-05-07 11:14 | 13.74050 | -151.33499 | 39072 ft | 536 kts | 44° |
| 2026-05-07 11:15 | 13.79165 | -151.27897 | 39073 ft | 536 kts | 44° |
| 2026-05-07 11:15 | 13.84264 | -151.22304 | 39073 ft | 536 kts | 44° |
| 2026-05-07 11:16 | 13.89367 | -151.16703 | 39073 ft | 537 kts | 44° |
| 2026-05-07 11:16 | 13.94467 | -151.11103 | 39073 ft | 536 kts | 44° |
| 2026-05-07 11:17 | 13.99562 | -151.05502 | 39073 ft | 536 kts | 44° |
| 2026-05-07 11:17 | 14.04652 | -150.99897 | 39074 ft | 536 kts | 44° |
| 2026-05-07 11:18 | 14.09746 | -150.94290 | 39073 ft | 535 kts | 44° |
| 2026-05-07 11:18 | 14.14813 | -150.88714 | 39073 ft | 535 kts | 44° |
| 2026-05-07 11:19 | 14.19898 | -150.83109 | 39073 ft | 535 kts | 44° |
| 2026-05-07 11:19 | 14.24979 | -150.77504 | 39072 ft | 535 kts | 44° |
| 2026-05-07 11:20 | 14.30055 | -150.71895 | 39072 ft | 535 kts | 44° |
| 2026-05-07 11:20 | 14.35134 | -150.66286 | 39073 ft | 535 kts | 44° |
| 2026-05-07 11:21 | 14.40211 | -150.60677 | 39072 ft | 534 kts | 44° |
| 2026-05-07 11:21 | 14.45278 | -150.55071 | 39073 ft | 535 kts | 44° |
| 2026-05-07 11:22 | 14.50351 | -150.49456 | 39073 ft | 534 kts | 44° |
| 2026-05-07 11:22 | 14.55393 | -150.43873 | 39072 ft | 534 kts | 44° |
| 2026-05-07 11:23 | 14.60456 | -150.38260 | 39072 ft | 533 kts | 44° |
| 2026-05-07 11:23 | 14.65516 | -150.32648 | 39073 ft | 534 kts | 44° |
| 2026-05-07 11:24 | 14.70565 | -150.27040 | 39073 ft | 534 kts | 44° |
| 2026-05-07 11:24 | 14.75627 | -150.21418 | 39075 ft | 533 kts | 44° |
| 2026-05-07 11:25 | 14.80674 | -150.15808 | 39073 ft | 533 kts | 44° |
| 2026-05-07 11:25 | 14.85727 | -150.10184 | 39072 ft | 533 kts | 44° |
| 2026-05-07 11:26 | 14.90781 | -150.04560 | 39073 ft | 533 kts | 44° |
| 2026-05-07 11:26 | 14.95827 | -149.98937 | 39073 ft | 533 kts | 44° |
| 2026-05-07 11:27 | 15.00839 | -149.93344 | 39072 ft | 532 kts | 44° |
| 2026-05-07 11:27 | 15.05879 | -149.87719 | 39075 ft | 532 kts | 44° |
| 2026-05-07 11:28 | 15.10908 | -149.82103 | 39082 ft | 531 kts | 44° |
| 2026-05-07 11:28 | 15.15925 | -149.76499 | 39083 ft | 531 kts | 44° |
| 2026-05-07 11:29 | 15.20937 | -149.70896 | 39082 ft | 530 kts | 44° |
| 2026-05-07 11:29 | 15.25959 | -149.65282 | 39082 ft | 531 kts | 44° |
| 2026-05-07 11:30 | 15.30970 | -149.59668 | 39082 ft | 531 kts | 44° |
| 2026-05-07 11:30 | 15.35979 | -149.54048 | 39082 ft | 530 kts | 44° |
| 2026-05-07 11:31 | 15.40949 | -149.48473 | 39083 ft | 530 kts | 44° |
| 2026-05-07 11:31 | 15.45950 | -149.42858 | 39082 ft | 530 kts | 44° |
| 2026-05-07 11:32 | 15.53450 | -149.34431 | 39082 ft | 530 kts | 44° |
| 2026-05-07 11:33 | 15.58450 | -149.28805 | 39082 ft | 530 kts | 44° |
| 2026-05-07 11:33 | 15.63454 | -149.23174 | 39082 ft | 530 kts | 44° |
| 2026-05-07 11:34 | 15.68442 | -149.17556 | 39082 ft | 529 kts | 44° |
| 2026-05-07 11:34 | 15.73401 | -149.11963 | 39082 ft | 529 kts | 44° |
| 2026-05-07 11:35 | 15.78382 | -149.06341 | 39082 ft | 529 kts | 44° |
| 2026-05-07 11:35 | 15.83376 | -149.00702 | 39083 ft | 528 kts | 44° |
| 2026-05-07 11:36 | 15.88350 | -148.95084 | 39082 ft | 528 kts | 44° |
| 2026-05-07 11:36 | 15.93328 | -148.89456 | 39082 ft | 528 kts | 44° |
| 2026-05-07 11:37 | 15.98291 | -148.83838 | 39082 ft | 528 kts | 44° |
| 2026-05-07 11:37 | 16.03242 | -148.78197 | 39080 ft | 529 kts | 46° |
| 2026-05-07 11:38 | 16.07779 | -148.72211 | 39082 ft | 530 kts | 51° |
| 2026-05-07 11:38 | 16.12171 | -148.66054 | 39083 ft | 530 kts | 51° |
| 2026-05-07 11:39 | 16.16618 | -148.59940 | 39082 ft | 529 kts | 50° |
| 2026-05-07 11:39 | 16.21103 | -148.53876 | 39082 ft | 529 kts | 50° |
| 2026-05-07 11:40 | 16.25581 | -148.47850 | 39082 ft | 528 kts | 50° |
| 2026-05-07 11:40 | 16.30075 | -148.41803 | 39082 ft | 528 kts | 50° |
| 2026-05-07 11:41 | 16.34570 | -148.35743 | 39082 ft | 528 kts | 50° |
| 2026-05-07 11:41 | 16.39062 | -148.29679 | 39082 ft | 529 kts | 50° |
| 2026-05-07 11:42 | 16.43548 | -148.23618 | 39082 ft | 528 kts | 50° |
| 2026-05-07 11:42 | 16.48028 | -148.17560 | 39082 ft | 528 kts | 50° |
| 2026-05-07 11:43 | 16.52491 | -148.11522 | 39082 ft | 528 kts | 50° |
| 2026-05-07 11:43 | 16.56971 | -148.05450 | 39082 ft | 528 kts | 50° |
| 2026-05-07 11:44 | 16.61441 | -147.99382 | 39082 ft | 528 kts | 50° |
| 2026-05-07 11:44 | 16.65923 | -147.93297 | 39082 ft | 529 kts | 50° |
| 2026-05-07 11:45 | 16.70400 | -147.87217 | 39082 ft | 528 kts | 50° |
| 2026-05-07 11:45 | 16.74880 | -147.81130 | 39083 ft | 528 kts | 50° |
| 2026-05-07 11:46 | 16.79356 | -147.75042 | 39082 ft | 529 kts | 50° |
| 2026-05-07 11:46 | 16.83832 | -147.68947 | 39083 ft | 529 kts | 50° |
| 2026-05-07 11:47 | 16.88313 | -147.62842 | 39082 ft | 529 kts | 50° |
| 2026-05-07 11:47 | 16.92775 | -147.56750 | 39082 ft | 528 kts | 50° |
| 2026-05-07 11:48 | 16.97221 | -147.50678 | 39082 ft | 529 kts | 50° |
| 2026-05-07 11:48 | 17.01690 | -147.44568 | 39082 ft | 529 kts | 50° |
| 2026-05-07 11:49 | 17.06156 | -147.38459 | 39082 ft | 529 kts | 50° |
| 2026-05-07 11:49 | 17.10634 | -147.32334 | 39083 ft | 529 kts | 50° |
| 2026-05-07 11:50 | 17.15099 | -147.26214 | 39082 ft | 530 kts | 50° |
| 2026-05-07 11:50 | 17.19570 | -147.20079 | 39082 ft | 530 kts | 50° |
| 2026-05-07 11:51 | 17.24035 | -147.13948 | 39082 ft | 530 kts | 50° |
| 2026-05-07 11:51 | 17.28504 | -147.07814 | 39082 ft | 530 kts | 50° |
| 2026-05-07 11:52 | 17.32975 | -147.01668 | 39082 ft | 530 kts | 50° |
| 2026-05-07 11:52 | 17.37407 | -146.95569 | 39082 ft | 530 kts | 49° |
| 2026-05-07 11:53 | 17.41874 | -146.89417 | 39082 ft | 531 kts | 50° |
| 2026-05-07 11:53 | 17.46338 | -146.83256 | 39082 ft | 531 kts | 50° |
| 2026-05-07 11:54 | 17.50804 | -146.77085 | 39082 ft | 531 kts | 50° |
| 2026-05-07 11:54 | 17.55272 | -146.70911 | 39082 ft | 531 kts | 50° |
| 2026-05-07 11:55 | 17.59725 | -146.64733 | 39082 ft | 532 kts | 51° |
| 2026-05-07 11:55 | 17.63932 | -146.58321 | 39082 ft | 534 kts | 53° |
| 2026-05-07 11:56 | 17.68000 | -146.51868 | 39082 ft | 534 kts | 53° |
| 2026-05-07 11:56 | 17.72130 | -146.45390 | 39082 ft | 534 kts | 53° |
| 2026-05-07 11:57 | 17.76290 | -146.38929 | 39083 ft | 534 kts | 52° |
| 2026-05-07 11:57 | 17.80464 | -146.32476 | 39082 ft | 534 kts | 52° |
| 2026-05-07 11:58 | 17.83932 | -146.27111 | 39082 ft | 534 kts | 53° |
| 2026-05-07 11:58 | 17.88101 | -146.20651 | 39083 ft | 535 kts | 52° |
| 2026-05-07 11:59 | 17.92276 | -146.14167 | 39081 ft | 535 kts | 53° |
| 2026-05-07 11:59 | 17.96438 | -146.07690 | 39082 ft | 535 kts | 53° |
| 2026-05-07 12:00 | 18.00608 | -146.01205 | 39082 ft | 535 kts | 53° |
| 2026-05-07 12:00 | 18.04776 | -145.94713 | 39082 ft | 535 kts | 53° |
| 2026-05-07 12:01 | 18.08943 | -145.88219 | 39082 ft | 535 kts | 53° |
| 2026-05-07 12:01 | 18.13106 | -145.81725 | 39082 ft | 535 kts | 53° |
| 2026-05-07 12:02 | 18.17267 | -145.75231 | 39082 ft | 536 kts | 53° |
| 2026-05-07 12:02 | 18.21402 | -145.68765 | 39082 ft | 535 kts | 53° |
| 2026-05-07 12:03 | 18.25562 | -145.62251 | 39082 ft | 536 kts | 53° |
| 2026-05-07 12:03 | 18.29728 | -145.55725 | 39064 ft | 539 kts | 53° |
| 2026-05-07 12:04 | 18.33895 | -145.49192 | 39063 ft | 540 kts | 53° |
| 2026-05-07 12:04 | 18.38082 | -145.42619 | 39063 ft | 540 kts | 53° |
| 2026-05-07 12:05 | 18.42264 | -145.36045 | 39064 ft | 540 kts | 53° |
| 2026-05-07 12:05 | 18.46415 | -145.29514 | 39064 ft | 540 kts | 53° |
| 2026-05-07 12:06 | 18.50592 | -145.22944 | 39063 ft | 540 kts | 53° |
| 2026-05-07 12:06 | 18.54769 | -145.16355 | 39065 ft | 540 kts | 53° |
| 2026-05-07 12:07 | 18.58941 | -145.09765 | 39064 ft | 541 kts | 53° |
| 2026-05-07 12:07 | 18.63119 | -145.03166 | 39062 ft | 541 kts | 53° |
| 2026-05-07 12:08 | 18.67291 | -144.96566 | 39063 ft | 541 kts | 53° |
| 2026-05-07 12:08 | 18.71468 | -144.89958 | 39066 ft | 541 kts | 53° |
| 2026-05-07 12:09 | 18.75639 | -144.83351 | 39064 ft | 541 kts | 53° |
| 2026-05-07 12:09 | 18.79810 | -144.76742 | 39063 ft | 541 kts | 53° |
| 2026-05-07 12:10 | 18.83944 | -144.70171 | 39063 ft | 541 kts | 53° |
| 2026-05-07 12:10 | 18.88113 | -144.63541 | 39063 ft | 542 kts | 53° |
| 2026-05-07 12:11 | 18.92281 | -144.56905 | 39063 ft | 542 kts | 53° |
| 2026-05-07 12:11 | 18.96449 | -144.50266 | 39064 ft | 542 kts | 53° |
| 2026-05-07 12:12 | 19.00617 | -144.43620 | 39063 ft | 543 kts | 53° |
| 2026-05-07 12:12 | 19.04784 | -144.36968 | 39066 ft | 543 kts | 53° |
| 2026-05-07 12:13 | 19.08958 | -144.30294 | 39063 ft | 544 kts | 53° |
| 2026-05-07 12:13 | 19.13133 | -144.23617 | 39064 ft | 544 kts | 53° |
| 2026-05-07 12:14 | 19.17311 | -144.16928 | 39065 ft | 545 kts | 53° |
| 2026-05-07 12:14 | 19.21493 | -144.10229 | 39063 ft | 546 kts | 53° |
| 2026-05-07 12:15 | 19.25651 | -144.03554 | 39065 ft | 546 kts | 53° |
| 2026-05-07 12:15 | 19.29840 | -143.96824 | 39063 ft | 547 kts | 53° |
| 2026-05-07 12:16 | 19.34029 | -143.90088 | 39063 ft | 547 kts | 53° |
| 2026-05-07 12:16 | 19.38206 | -143.83357 | 39063 ft | 547 kts | 53° |
| 2026-05-07 12:17 | 19.42370 | -143.76649 | 39063 ft | 547 kts | 53° |
| 2026-05-07 12:17 | 19.46550 | -143.69901 | 39065 ft | 548 kts | 53° |
| 2026-05-07 12:18 | 19.50731 | -143.63143 | 39063 ft | 548 kts | 53° |
| 2026-05-07 12:18 | 19.54909 | -143.56383 | 39063 ft | 548 kts | 53° |
| 2026-05-07 12:19 | 19.59090 | -143.49611 | 39064 ft | 548 kts | 53° |
| 2026-05-07 12:19 | 19.63268 | -143.42837 | 39063 ft | 548 kts | 53° |
| 2026-05-07 12:20 | 19.67433 | -143.36077 | 39063 ft | 548 kts | 53° |
| 2026-05-07 12:20 | 19.71605 | -143.29298 | 39063 ft | 548 kts | 53° |
| 2026-05-07 12:21 | 19.75741 | -143.22570 | 39065 ft | 547 kts | 53° |
| 2026-05-07 12:21 | 19.79891 | -143.15804 | 39063 ft | 546 kts | 53° |
| 2026-05-07 12:22 | 19.83937 | -143.08965 | 39065 ft | 547 kts | 54° |
| 2026-05-07 12:22 | 19.87944 | -143.02094 | 39063 ft | 546 kts | 54° |
| 2026-05-07 12:23 | 19.91955 | -142.95244 | 39063 ft | 546 kts | 54° |
| 2026-05-07 12:23 | 19.95974 | -142.88405 | 39064 ft | 545 kts | 54° |
| 2026-05-07 12:24 | 19.99994 | -142.81564 | 39065 ft | 545 kts | 54° |
| 2026-05-07 12:24 | 20.04013 | -142.74724 | 39065 ft | 546 kts | 54° |
| 2026-05-07 12:25 | 20.08010 | -142.67906 | 39063 ft | 547 kts | 54° |
| 2026-05-07 12:25 | 20.12030 | -142.61032 | 39064 ft | 547 kts | 54° |
| 2026-05-07 12:26 | 20.16052 | -142.54147 | 39065 ft | 547 kts | 53° |
| 2026-05-07 12:26 | 20.20062 | -142.47279 | 39124 ft | 546 kts | 54° |
| 2026-05-07 12:27 | 20.24070 | -142.40407 | 39215 ft | 545 kts | 53° |
| 2026-05-07 12:27 | 20.28070 | -142.33544 | 39210 ft | 545 kts | 53° |
| 2026-05-07 12:28 | 20.32057 | -142.26692 | 39108 ft | 544 kts | 54° |
| 2026-05-07 12:28 | 20.36053 | -142.19821 | 39100 ft | 545 kts | 54° |
| 2026-05-07 12:29 | 20.40041 | -142.12946 | 39100 ft | 545 kts | 54° |
| 2026-05-07 12:29 | 20.44000 | -142.06113 | 39101 ft | 545 kts | 54° |
| 2026-05-07 12:30 | 20.47982 | -141.99244 | 39101 ft | 544 kts | 54° |
| 2026-05-07 12:30 | 20.51960 | -141.92366 | 39100 ft | 545 kts | 54° |
| 2026-05-07 12:31 | 20.55951 | -141.85466 | 39101 ft | 545 kts | 53° |
| 2026-05-07 12:31 | 20.59931 | -141.78565 | 39101 ft | 545 kts | 53° |
| 2026-05-07 12:32 | 20.63884 | -141.71704 | 39100 ft | 546 kts | 53° |
| 2026-05-07 12:32 | 20.67862 | -141.64791 | 39101 ft | 546 kts | 54° |
| 2026-05-07 12:33 | 20.73828 | -141.54409 | 39101 ft | 547 kts | 53° |
| 2026-05-07 12:33 | 20.77809 | -141.47473 | 39101 ft | 547 kts | 53° |
| 2026-05-07 12:34 | 20.81789 | -141.40535 | 39101 ft | 548 kts | 53° |
| 2026-05-07 12:34 | 20.85774 | -141.33588 | 39101 ft | 548 kts | 53° |
| 2026-05-07 12:35 | 20.89751 | -141.26633 | 39100 ft | 548 kts | 53° |
| 2026-05-07 12:35 | 20.93715 | -141.19679 | 39101 ft | 548 kts | 53° |
| 2026-05-07 12:36 | 20.97682 | -141.12709 | 39100 ft | 548 kts | 53° |
| 2026-05-07 12:36 | 21.01665 | -141.05718 | 39100 ft | 550 kts | 53° |
| 2026-05-07 12:37 | 21.05643 | -140.98728 | 39100 ft | 549 kts | 53° |
| 2026-05-07 12:37 | 21.09613 | -140.91741 | 39100 ft | 549 kts | 53° |
| 2026-05-07 12:38 | 21.13584 | -140.84753 | 39101 ft | 549 kts | 53° |
| 2026-05-07 12:38 | 21.17558 | -140.77746 | 39100 ft | 550 kts | 53° |
| 2026-05-07 12:39 | 21.21496 | -140.70780 | 39101 ft | 550 kts | 53° |
| 2026-05-07 12:39 | 21.25453 | -140.63773 | 39093 ft | 550 kts | 53° |
| 2026-05-07 12:40 | 21.29425 | -140.56746 | 39092 ft | 550 kts | 53° |
| 2026-05-07 12:40 | 21.33384 | -140.49717 | 39091 ft | 550 kts | 53° |
| 2026-05-07 12:41 | 21.37337 | -140.42711 | 39100 ft | 549 kts | 53° |
| 2026-05-07 12:41 | 21.41294 | -140.35680 | 39100 ft | 551 kts | 53° |
| 2026-05-07 12:42 | 21.45260 | -140.28632 | 39100 ft | 551 kts | 53° |
| 2026-05-07 12:42 | 21.49199 | -140.21593 | 39101 ft | 550 kts | 53° |
| 2026-05-07 12:43 | 21.53110 | -140.14564 | 39102 ft | 551 kts | 52° |
| 2026-05-07 12:43 | 21.57063 | -140.07514 | 39101 ft | 550 kts | 52° |
| 2026-05-07 12:44 | 21.61030 | -140.00463 | 39090 ft | 553 kts | 53° |
| 2026-05-07 12:44 | 21.64974 | -139.93392 | 39092 ft | 551 kts | 53° |
| 2026-05-07 12:45 | 21.68239 | -139.87525 | 39090 ft | 549 kts | 52° |
| 2026-05-07 12:45 | 21.72171 | -139.80467 | 39092 ft | 548 kts | 52° |
| 2026-05-07 12:46 | 21.76112 | -139.73409 | 39099 ft | 550 kts | 52° |
| 2026-05-07 12:46 | 21.80029 | -139.66331 | 39103 ft | 550 kts | 53° |
| 2026-05-07 12:47 | 21.83936 | -139.59259 | 39102 ft | 550 kts | 53° |
| 2026-05-07 12:47 | 21.87859 | -139.52186 | 39100 ft | 551 kts | 52° |
| 2026-05-07 12:48 | 21.91756 | -139.45169 | 39092 ft | 548 kts | 53° |
| 2026-05-07 12:48 | 21.95680 | -139.38067 | 39099 ft | 549 kts | 53° |
| 2026-05-07 12:49 | 21.99554 | -139.31062 | 39100 ft | 547 kts | 53° |
| 2026-05-07 12:49 | 22.03446 | -139.24008 | 39100 ft | 546 kts | 53° |
| 2026-05-07 12:50 | 22.07284 | -139.17012 | 39102 ft | 540 kts | 53° |
| 2026-05-07 12:50 | 22.11108 | -139.10056 | 39098 ft | 538 kts | 54° |
| 2026-05-07 12:51 | 22.14906 | -139.03115 | 39098 ft | 536 kts | 54° |
| 2026-05-07 12:51 | 22.18694 | -138.96201 | 39092 ft | 535 kts | 54° |
| 2026-05-07 12:52 | 22.22472 | -138.89297 | 39090 ft | 533 kts | 54° |
| 2026-05-07 12:52 | 22.26237 | -138.82406 | 39091 ft | 532 kts | 54° |
| 2026-05-07 12:53 | 22.29973 | -138.75560 | 39091 ft | 531 kts | 54° |
| 2026-05-07 12:53 | 22.33724 | -138.68685 | 39082 ft | 530 kts | 54° |
| 2026-05-07 12:54 | 22.37463 | -138.61824 | 39082 ft | 529 kts | 54° |
| 2026-05-07 12:54 | 22.41193 | -138.54965 | 39082 ft | 529 kts | 54° |
| 2026-05-07 12:55 | 22.44925 | -138.48098 | 39083 ft | 529 kts | 54° |
| 2026-05-07 12:55 | 22.48655 | -138.41222 | 39082 ft | 529 kts | 54° |
| 2026-05-07 12:56 | 22.52346 | -138.34402 | 39082 ft | 528 kts | 54° |
| 2026-05-07 12:56 | 22.56047 | -138.27552 | 39082 ft | 528 kts | 54° |
| 2026-05-07 12:57 | 22.59758 | -138.20691 | 39082 ft | 527 kts | 54° |
| 2026-05-07 12:57 | 22.63454 | -138.13843 | 39083 ft | 527 kts | 54° |
| 2026-05-07 12:58 | 22.67142 | -138.06994 | 39091 ft | 527 kts | 55° |
| 2026-05-07 12:58 | 22.70834 | -138.00143 | 39091 ft | 526 kts | 54° |
| 2026-05-07 12:59 | 22.74652 | -137.93398 | 39091 ft | 524 kts | 53° |
| 2026-05-07 12:59 | 22.78525 | -137.86726 | 39091 ft | 523 kts | 53° |
| 2026-05-07 13:00 | 22.82372 | -137.80050 | 39092 ft | 522 kts | 53° |
| 2026-05-07 13:00 | 22.86167 | -137.73408 | 39091 ft | 521 kts | 53° |
| 2026-05-07 13:01 | 22.89978 | -137.66719 | 39091 ft | 521 kts | 54° |
| 2026-05-07 13:01 | 22.93775 | -137.60041 | 39091 ft | 520 kts | 54° |
| 2026-05-07 13:02 | 22.97565 | -137.53366 | 39091 ft | 519 kts | 54° |
| 2026-05-07 13:02 | 23.01351 | -137.46685 | 39083 ft | 518 kts | 54° |
| 2026-05-07 13:03 | 23.05133 | -137.40016 | 39082 ft | 518 kts | 54° |
| 2026-05-07 13:03 | 23.08882 | -137.33396 | 39082 ft | 517 kts | 54° |
| 2026-05-07 13:04 | 23.12655 | -137.26725 | 39082 ft | 517 kts | 54° |
| 2026-05-07 13:04 | 23.16415 | -137.20061 | 39082 ft | 517 kts | 54° |
| 2026-05-07 13:05 | 23.20170 | -137.13397 | 39083 ft | 516 kts | 54° |
| 2026-05-07 13:05 | 23.23918 | -137.06736 | 39082 ft | 516 kts | 54° |
| 2026-05-07 13:06 | 23.27642 | -137.00114 | 39082 ft | 515 kts | 54° |
| 2026-05-07 13:06 | 23.31380 | -136.93464 | 39082 ft | 515 kts | 54° |
| 2026-05-07 13:07 | 23.35110 | -136.86810 | 39082 ft | 515 kts | 54° |
| 2026-05-07 13:07 | 23.38840 | -136.80155 | 39082 ft | 515 kts | 55° |
| 2026-05-07 13:08 | 23.42561 | -136.73505 | 39082 ft | 514 kts | 55° |
| 2026-05-07 13:08 | 23.46280 | -136.66849 | 39082 ft | 514 kts | 55° |
| 2026-05-07 13:09 | 23.49992 | -136.60194 | 39082 ft | 513 kts | 55° |
| 2026-05-07 13:09 | 23.53673 | -136.53586 | 39082 ft | 512 kts | 55° |
| 2026-05-07 13:10 | 23.57365 | -136.46952 | 39082 ft | 512 kts | 55° |
| 2026-05-07 13:10 | 23.61057 | -136.40307 | 39083 ft | 512 kts | 55° |
| 2026-05-07 13:11 | 23.64746 | -136.33667 | 39082 ft | 511 kts | 55° |
| 2026-05-07 13:11 | 23.68415 | -136.27042 | 39086 ft | 510 kts | 55° |
| 2026-05-07 13:12 | 23.72083 | -136.20410 | 39091 ft | 510 kts | 55° |
| 2026-05-07 13:12 | 23.75722 | -136.13824 | 39092 ft | 510 kts | 55° |
| 2026-05-07 13:13 | 23.79380 | -136.07198 | 39091 ft | 509 kts | 55° |
| 2026-05-07 13:13 | 23.83035 | -136.00575 | 39092 ft | 508 kts | 55° |
| 2026-05-07 13:14 | 23.86678 | -135.93957 | 39092 ft | 509 kts | 56° |
| 2026-05-07 13:14 | 23.90321 | -135.87330 | 39091 ft | 509 kts | 56° |
| 2026-05-07 13:15 | 23.93963 | -135.80694 | 39091 ft | 508 kts | 56° |
| 2026-05-07 13:15 | 23.97607 | -135.74056 | 39091 ft | 509 kts | 56° |
| 2026-05-07 13:16 | 24.01218 | -135.67452 | 39100 ft | 509 kts | 55° |
| 2026-05-07 13:16 | 24.04851 | -135.60808 | 39100 ft | 509 kts | 56° |
| 2026-05-07 13:17 | 24.08481 | -135.54163 | 39101 ft | 508 kts | 56° |
| 2026-05-07 13:17 | 24.12095 | -135.47535 | 39101 ft | 507 kts | 56° |
| 2026-05-07 13:18 | 24.15687 | -135.40938 | 39100 ft | 507 kts | 56° |
| 2026-05-07 13:18 | 24.19300 | -135.34297 | 39101 ft | 508 kts | 56° |
| 2026-05-07 13:19 | 24.22913 | -135.27649 | 39101 ft | 507 kts | 56° |
| 2026-05-07 13:19 | 24.26516 | -135.20997 | 39101 ft | 507 kts | 56° |
| 2026-05-07 13:20 | 24.30113 | -135.14356 | 39101 ft | 507 kts | 56° |
| 2026-05-07 13:20 | 24.33709 | -135.07711 | 39101 ft | 506 kts | 56° |
| 2026-05-07 13:21 | 24.37278 | -135.01106 | 39101 ft | 506 kts | 56° |
| 2026-05-07 13:21 | 24.40867 | -134.94454 | 39100 ft | 506 kts | 56° |
| 2026-05-07 13:22 | 24.44459 | -134.87789 | 39100 ft | 507 kts | 56° |
| 2026-05-07 13:22 | 24.48041 | -134.81124 | 39100 ft | 506 kts | 56° |
| 2026-05-07 13:23 | 24.51621 | -134.74459 | 39100 ft | 507 kts | 56° |
| 2026-05-07 13:23 | 24.55206 | -134.67781 | 39100 ft | 507 kts | 56° |
| 2026-05-07 13:24 | 24.58765 | -134.61136 | 39100 ft | 507 kts | 56° |
| 2026-05-07 13:24 | 24.62340 | -134.54453 | 39100 ft | 507 kts | 56° |
| 2026-05-07 13:25 | 24.65913 | -134.47763 | 39100 ft | 507 kts | 56° |
| 2026-05-07 13:25 | 24.69489 | -134.41064 | 39100 ft | 507 kts | 56° |
| 2026-05-07 13:26 | 24.73049 | -134.34378 | 39101 ft | 506 kts | 56° |
| 2026-05-07 13:26 | 24.76610 | -134.27682 | 39100 ft | 507 kts | 56° |
| 2026-05-07 13:27 | 24.80145 | -134.21033 | 39101 ft | 506 kts | 56° |
| 2026-05-07 13:27 | 24.83699 | -134.14336 | 39100 ft | 506 kts | 57° |
| 2026-05-07 13:28 | 24.87484 | -134.07823 | 39100 ft | 503 kts | 52° |
| 2026-05-07 13:28 | 24.91445 | -134.01468 | 39101 ft | 503 kts | 52° |
| 2026-05-07 13:29 | 24.95374 | -133.95087 | 39101 ft | 503 kts | 53° |
| 2026-05-07 13:29 | 24.99255 | -133.88683 | 39101 ft | 503 kts | 53° |
| 2026-05-07 13:30 | 25.03128 | -133.82255 | 39102 ft | 502 kts | 53° |
| 2026-05-07 13:30 | 25.06985 | -133.75841 | 39101 ft | 502 kts | 53° |
| 2026-05-07 13:31 | 25.10839 | -133.69416 | 39101 ft | 501 kts | 53° |
| 2026-05-07 13:31 | 25.14666 | -133.63040 | 39100 ft | 501 kts | 53° |
| 2026-05-07 13:32 | 25.18509 | -133.56621 | 39100 ft | 500 kts | 53° |
| 2026-05-07 13:32 | 25.22345 | -133.50204 | 39101 ft | 500 kts | 53° |
| 2026-05-07 13:33 | 25.26179 | -133.43785 | 39100 ft | 500 kts | 53° |
| 2026-05-07 13:33 | 25.29362 | -133.38453 | 39100 ft | 500 kts | 53° |
| 2026-05-07 13:34 | 25.35722 | -133.27784 | 39101 ft | 499 kts | 53° |
| 2026-05-07 13:35 | 25.38919 | -133.22412 | 39101 ft | 499 kts | 53° |
| 2026-05-07 13:35 | 25.42717 | -133.16018 | 39100 ft | 500 kts | 54° |
| 2026-05-07 13:36 | 25.46528 | -133.09584 | 39101 ft | 499 kts | 54° |
| 2026-05-07 13:36 | 25.50341 | -133.03150 | 39101 ft | 500 kts | 54° |
| 2026-05-07 13:37 | 25.54151 | -132.96715 | 39101 ft | 499 kts | 54° |
| 2026-05-07 13:37 | 25.57947 | -132.90287 | 39100 ft | 499 kts | 54° |
| 2026-05-07 13:38 | 25.61746 | -132.83845 | 39101 ft | 499 kts | 54° |
| 2026-05-07 13:38 | 25.65538 | -132.77408 | 39100 ft | 499 kts | 54° |
| 2026-05-07 13:39 | 25.69329 | -132.70968 | 39101 ft | 498 kts | 54° |
| 2026-05-07 13:39 | 25.73114 | -132.64524 | 39100 ft | 498 kts | 54° |
| 2026-05-07 13:40 | 25.76866 | -132.58127 | 39103 ft | 498 kts | 54° |
| 2026-05-07 13:40 | 25.80641 | -132.51685 | 39110 ft | 498 kts | 54° |
| 2026-05-07 13:41 | 25.84413 | -132.45236 | 39110 ft | 498 kts | 54° |
| 2026-05-07 13:41 | 25.88184 | -132.38782 | 39110 ft | 497 kts | 54° |
| 2026-05-07 13:42 | 25.91941 | -132.32336 | 39110 ft | 497 kts | 54° |
| 2026-05-07 13:42 | 25.95697 | -132.25893 | 39110 ft | 497 kts | 54° |
| 2026-05-07 13:43 | 25.99451 | -132.19437 | 39110 ft | 496 kts | 55° |
| 2026-05-07 13:43 | 26.03173 | -132.13026 | 39110 ft | 496 kts | 55° |
| 2026-05-07 13:44 | 26.06923 | -132.06563 | 39110 ft | 496 kts | 55° |
| 2026-05-07 13:44 | 26.10668 | -132.00106 | 39110 ft | 496 kts | 55° |
| 2026-05-07 13:45 | 26.14405 | -131.93647 | 39110 ft | 497 kts | 55° |
| 2026-05-07 13:45 | 26.18124 | -131.87214 | 39110 ft | 496 kts | 55° |
| 2026-05-07 13:46 | 26.21854 | -131.80746 | 39110 ft | 496 kts | 55° |
| 2026-05-07 13:46 | 26.25580 | -131.74277 | 39109 ft | 496 kts | 55° |
| 2026-05-07 13:47 | 26.29298 | -131.67813 | 39110 ft | 495 kts | 55° |
| 2026-05-07 13:47 | 26.33007 | -131.61353 | 39110 ft | 495 kts | 55° |
| 2026-05-07 13:48 | 26.36721 | -131.54876 | 39110 ft | 495 kts | 55° |
| 2026-05-07 13:48 | 26.40423 | -131.48415 | 39110 ft | 494 kts | 55° |
| 2026-05-07 13:49 | 26.44124 | -131.41948 | 39110 ft | 494 kts | 54° |
| 2026-05-07 13:49 | 26.47810 | -131.35491 | 39110 ft | 493 kts | 54° |
| 2026-05-07 13:50 | 26.51473 | -131.29070 | 39110 ft | 493 kts | 54° |
| 2026-05-07 13:50 | 26.55151 | -131.22613 | 39110 ft | 492 kts | 54° |
| 2026-05-07 13:51 | 26.58818 | -131.16167 | 39109 ft | 492 kts | 54° |
| 2026-05-07 13:51 | 26.62479 | -131.09719 | 39110 ft | 491 kts | 54° |
| 2026-05-07 13:52 | 26.66143 | -131.03256 | 39110 ft | 491 kts | 54° |
| 2026-05-07 13:52 | 26.69797 | -130.96807 | 39110 ft | 490 kts | 54° |
| 2026-05-07 13:53 | 26.73417 | -130.90402 | 39109 ft | 490 kts | 54° |
| 2026-05-07 13:53 | 26.77056 | -130.83959 | 39110 ft | 490 kts | 54° |
| 2026-05-07 13:54 | 26.80692 | -130.77512 | 39110 ft | 489 kts | 54° |
| 2026-05-07 13:54 | 26.84320 | -130.71060 | 39109 ft | 490 kts | 54° |
| 2026-05-07 13:55 | 26.87944 | -130.64608 | 39110 ft | 489 kts | 54° |
| 2026-05-07 13:55 | 26.91564 | -130.58168 | 39110 ft | 488 kts | 54° |
| 2026-05-07 13:56 | 26.95185 | -130.51719 | 39110 ft | 488 kts | 54° |
| 2026-05-07 13:56 | 26.98794 | -130.45272 | 39110 ft | 488 kts | 54° |
| 2026-05-07 13:57 | 27.02393 | -130.38830 | 39110 ft | 488 kts | 54° |
| 2026-05-07 13:57 | 27.05986 | -130.32391 | 39110 ft | 487 kts | 54° |
| 2026-05-07 13:58 | 27.09572 | -130.25952 | 39110 ft | 486 kts | 54° |
| 2026-05-07 13:58 | 27.13149 | -130.19521 | 39110 ft | 485 kts | 54° |
| 2026-05-07 13:59 | 27.16706 | -130.13133 | 39110 ft | 485 kts | 54° |
| 2026-05-07 13:59 | 27.20276 | -130.06703 | 39109 ft | 484 kts | 54° |
| 2026-05-07 14:00 | 27.23834 | -130.00280 | 39110 ft | 484 kts | 54° |
| 2026-05-07 14:00 | 27.27385 | -129.93858 | 39109 ft | 483 kts | 54° |
| 2026-05-07 14:01 | 27.30930 | -129.87440 | 39110 ft | 483 kts | 54° |
| 2026-05-07 14:01 | 27.34472 | -129.81020 | 39110 ft | 482 kts | 54° |
| 2026-05-07 14:02 | 27.37985 | -129.74640 | 39110 ft | 483 kts | 54° |
| 2026-05-07 14:02 | 27.41522 | -129.68215 | 39114 ft | 482 kts | 54° |
| 2026-05-07 14:03 | 27.45042 | -129.61803 | 39119 ft | 482 kts | 54° |
| 2026-05-07 14:03 | 27.48563 | -129.55384 | 39119 ft | 482 kts | 54° |
| 2026-05-07 14:04 | 27.52087 | -129.48956 | 39119 ft | 481 kts | 54° |
| 2026-05-07 14:04 | 27.55607 | -129.42517 | 39119 ft | 482 kts | 54° |
| 2026-05-07 14:05 | 27.59119 | -129.36086 | 39118 ft | 482 kts | 54° |
| 2026-05-07 14:05 | 27.62611 | -129.29674 | 39118 ft | 483 kts | 54° |
| 2026-05-07 14:06 | 27.66200 | -129.23272 | 39119 ft | 481 kts | 53° |
| 2026-05-07 14:06 | 27.69936 | -129.16991 | 39119 ft | 482 kts | 52° |
| 2026-05-07 14:07 | 27.73670 | -129.10710 | 39119 ft | 482 kts | 53° |
| 2026-05-07 14:07 | 27.77381 | -129.04401 | 39118 ft | 482 kts | 53° |
| 2026-05-07 14:08 | 27.81076 | -128.98083 | 39119 ft | 483 kts | 53° |
| 2026-05-07 14:08 | 27.84779 | -128.91729 | 39120 ft | 483 kts | 53° |
| 2026-05-07 14:09 | 27.88447 | -128.85429 | 39119 ft | 483 kts | 53° |
| 2026-05-07 14:09 | 27.92143 | -128.79078 | 39119 ft | 483 kts | 53° |
| 2026-05-07 14:10 | 27.95836 | -128.72717 | 39119 ft | 483 kts | 53° |
| 2026-05-07 14:10 | 27.99528 | -128.66352 | 39121 ft | 484 kts | 54° |
| 2026-05-07 14:11 | 28.03212 | -128.59991 | 39118 ft | 482 kts | 54° |
| 2026-05-07 14:11 | 28.06885 | -128.53641 | 39119 ft | 482 kts | 54° |
| 2026-05-07 14:12 | 28.10566 | -128.47271 | 39119 ft | 482 kts | 54° |
| 2026-05-07 14:12 | 28.14234 | -128.40910 | 39119 ft | 482 kts | 54° |
| 2026-05-07 14:13 | 28.17896 | -128.34584 | 39118 ft | 482 kts | 53° |
| 2026-05-07 14:13 | 28.21853 | -128.28443 | 39119 ft | 482 kts | 50° |
| 2026-05-07 14:14 | 28.25905 | -128.22385 | 39119 ft | 482 kts | 50° |
| 2026-05-07 14:14 | 28.29921 | -128.16292 | 39119 ft | 482 kts | 51° |
| 2026-05-07 14:15 | 28.33903 | -128.10166 | 39111 ft | 482 kts | 51° |
| 2026-05-07 14:15 | 28.37872 | -128.04033 | 39110 ft | 482 kts | 51° |
| 2026-05-07 14:16 | 28.41839 | -127.97892 | 39109 ft | 482 kts | 51° |
| 2026-05-07 14:16 | 28.45805 | -127.91744 | 39110 ft | 482 kts | 51° |
| 2026-05-07 14:17 | 28.49745 | -127.85629 | 39111 ft | 482 kts | 51° |
| 2026-05-07 14:17 | 28.53703 | -127.79482 | 39110 ft | 482 kts | 51° |
| 2026-05-07 14:18 | 28.57654 | -127.73328 | 39110 ft | 481 kts | 51° |
| 2026-05-07 14:18 | 28.61606 | -127.67171 | 39110 ft | 482 kts | 51° |
| 2026-05-07 14:19 | 28.65531 | -127.61047 | 39110 ft | 481 kts | 52° |
| 2026-05-07 14:19 | 28.69468 | -127.54895 | 39110 ft | 481 kts | 52° |
| 2026-05-07 14:20 | 28.73406 | -127.48733 | 39110 ft | 481 kts | 52° |
| 2026-05-07 14:20 | 28.77333 | -127.42576 | 39110 ft | 480 kts | 52° |
| 2026-05-07 14:21 | 28.81256 | -127.36414 | 39109 ft | 480 kts | 52° |
| 2026-05-07 14:21 | 28.85180 | -127.30246 | 39110 ft | 479 kts | 52° |
| 2026-05-07 14:22 | 28.89094 | -127.24084 | 39110 ft | 479 kts | 52° |
| 2026-05-07 14:22 | 28.93002 | -127.17920 | 39110 ft | 480 kts | 52° |
| 2026-05-07 14:23 | 28.96910 | -127.11751 | 39110 ft | 479 kts | 52° |
| 2026-05-07 14:23 | 29.00788 | -127.05619 | 39110 ft | 479 kts | 52° |
| 2026-05-07 14:24 | 29.04684 | -126.99451 | 39109 ft | 478 kts | 52° |
| 2026-05-07 14:24 | 29.07948 | -126.94274 | 39110 ft | 478 kts | 52° |
| 2026-05-07 14:25 | 29.11805 | -126.88145 | 39110 ft | 478 kts | 52° |
| 2026-05-07 14:25 | 29.15685 | -126.81973 | 39110 ft | 478 kts | 52° |
| 2026-05-07 14:26 | 29.19565 | -126.75798 | 39110 ft | 478 kts | 52° |
| 2026-05-07 14:26 | 29.23435 | -126.69624 | 39110 ft | 477 kts | 52° |
| 2026-05-07 14:27 | 29.27312 | -126.63426 | 39109 ft | 477 kts | 52° |
| 2026-05-07 14:27 | 29.31177 | -126.57243 | 39109 ft | 477 kts | 52° |
| 2026-05-07 14:28 | 29.35009 | -126.51101 | 39109 ft | 477 kts | 53° |
| 2026-05-07 14:28 | 29.38862 | -126.44918 | 39110 ft | 476 kts | 52° |
| 2026-05-07 14:29 | 29.42718 | -126.38728 | 39110 ft | 476 kts | 53° |
| 2026-05-07 14:29 | 29.46559 | -126.32547 | 39110 ft | 475 kts | 53° |
| 2026-05-07 14:30 | 29.50392 | -126.26369 | 39110 ft | 474 kts | 53° |
| 2026-05-07 14:30 | 29.54189 | -126.20233 | 39111 ft | 474 kts | 53° |
| 2026-05-07 14:31 | 29.58028 | -126.14028 | 39110 ft | 473 kts | 53° |
| 2026-05-07 14:31 | 29.61818 | -126.07896 | 39110 ft | 473 kts | 53° |
| 2026-05-07 14:32 | 29.65626 | -126.01717 | 39110 ft | 473 kts | 53° |
| 2026-05-07 14:32 | 29.69431 | -125.95539 | 39109 ft | 473 kts | 53° |
| 2026-05-07 14:33 | 29.73226 | -125.89368 | 39110 ft | 472 kts | 53° |
| 2026-05-07 14:33 | 29.77025 | -125.83181 | 39109 ft | 473 kts | 53° |
| 2026-05-07 14:34 | 29.80812 | -125.77006 | 39110 ft | 473 kts | 53° |
| 2026-05-07 14:34 | 29.84606 | -125.70807 | 39109 ft | 473 kts | 53° |
| 2026-05-07 14:35 | 29.88397 | -125.64601 | 39110 ft | 473 kts | 53° |
| 2026-05-07 14:35 | 29.92151 | -125.58455 | 39110 ft | 472 kts | 53° |
| 2026-05-07 14:36 | 29.95931 | -125.52248 | 39109 ft | 473 kts | 53° |
| 2026-05-07 14:36 | 29.99704 | -125.46040 | 39110 ft | 472 kts | 53° |
| 2026-05-07 14:37 | 30.03477 | -125.39825 | 39110 ft | 472 kts | 53° |
| 2026-05-07 14:37 | 30.09124 | -125.30513 | 39110 ft | 472 kts | 54° |
| 2026-05-07 14:38 | 30.12888 | -125.24297 | 39110 ft | 472 kts | 53° |
| 2026-05-07 14:38 | 30.16643 | -125.18079 | 39110 ft | 472 kts | 54° |
| 2026-05-07 14:39 | 30.20371 | -125.11894 | 39124 ft | 471 kts | 54° |
| 2026-05-07 14:39 | 30.22244 | -125.08784 | 39248 ft | 472 kts | 54° |
| 2026-05-07 14:39 | 30.24118 | -125.05671 | 39415 ft | 472 kts | 54° |
| 2026-05-07 14:40 | 30.25994 | -125.02553 | 39542 ft | 473 kts | 54° |
| 2026-05-07 14:40 | 30.27874 | -124.99428 | 39688 ft | 473 kts | 54° |
| 2026-05-07 14:40 | 30.29749 | -124.96311 | 39843 ft | 473 kts | 54° |
| 2026-05-07 14:40 | 30.31631 | -124.93173 | 39967 ft | 474 kts | 54° |
| 2026-05-07 14:41 | 30.33505 | -124.90046 | 40089 ft | 474 kts | 54° |
| 2026-05-07 14:41 | 30.35391 | -124.86898 | 40211 ft | 475 kts | 54° |
| 2026-05-07 14:41 | 30.37275 | -124.83751 | 40325 ft | 475 kts | 54° |
| 2026-05-07 14:41 | 30.39160 | -124.80600 | 40451 ft | 475 kts | 54° |
| 2026-05-07 14:42 | 30.41041 | -124.77453 | 40565 ft | 476 kts | 54° |
| 2026-05-07 14:42 | 30.42928 | -124.74295 | 40674 ft | 476 kts | 54° |
| 2026-05-07 14:42 | 30.44813 | -124.71138 | 40776 ft | 476 kts | 54° |
| 2026-05-07 14:42 | 30.46693 | -124.67985 | 40881 ft | 477 kts | 54° |
| 2026-05-07 14:43 | 30.50466 | -124.61651 | 41067 ft | 478 kts | 54° |
| 2026-05-07 14:43 | 30.54225 | -124.55332 | 41090 ft | 478 kts | 54° |
| 2026-05-07 14:44 | 30.58004 | -124.48967 | 41094 ft | 478 kts | 54° |
| 2026-05-07 14:44 | 30.61769 | -124.42617 | 41089 ft | 478 kts | 54° |
| 2026-05-07 14:45 | 30.65537 | -124.36251 | 41088 ft | 478 kts | 54° |
| 2026-05-07 14:45 | 30.69273 | -124.29929 | 41093 ft | 478 kts | 54° |
| 2026-05-07 14:46 | 30.73029 | -124.23562 | 41091 ft | 478 kts | 54° |
| 2026-05-07 14:46 | 30.76788 | -124.17181 | 41092 ft | 478 kts | 54° |
| 2026-05-07 14:47 | 30.80545 | -124.10793 | 41090 ft | 478 kts | 54° |
| 2026-05-07 14:47 | 30.84294 | -124.04408 | 41107 ft | 478 kts | 54° |
| 2026-05-07 14:48 | 30.88018 | -123.98056 | 41106 ft | 478 kts | 54° |
| 2026-05-07 14:48 | 30.91757 | -123.91668 | 41106 ft | 477 kts | 54° |
| 2026-05-07 14:49 | 30.95495 | -123.85269 | 41095 ft | 477 kts | 54° |
| 2026-05-07 14:49 | 30.99225 | -123.78877 | 41099 ft | 477 kts | 54° |
| 2026-05-07 14:50 | 31.02950 | -123.72481 | 41106 ft | 477 kts | 54° |
| 2026-05-07 14:50 | 31.06676 | -123.66074 | 41095 ft | 477 kts | 54° |
| 2026-05-07 14:51 | 31.10399 | -123.59661 | 41098 ft | 477 kts | 54° |
| 2026-05-07 14:51 | 31.13455 | -123.52794 | 41106 ft | 480 kts | 70° |
| 2026-05-07 14:52 | 31.15173 | -123.45300 | 41100 ft | 482 kts | 75° |
| 2026-05-07 14:52 | 31.16735 | -123.37693 | 41100 ft | 482 kts | 75° |
| 2026-05-07 14:53 | 31.18294 | -123.30075 | 41105 ft | 482 kts | 75° |
| 2026-05-07 14:53 | 31.19849 | -123.22460 | 41097 ft | 482 kts | 75° |
| 2026-05-07 14:54 | 31.21399 | -123.14841 | 41092 ft | 482 kts | 75° |
| 2026-05-07 14:54 | 31.22948 | -123.07206 | 41104 ft | 482 kts | 75° |
| 2026-05-07 14:55 | 31.24480 | -122.99626 | 41105 ft | 482 kts | 75° |
| 2026-05-07 14:55 | 31.26019 | -122.91994 | 41095 ft | 482 kts | 75° |
| 2026-05-07 14:56 | 31.27551 | -122.84365 | 41100 ft | 482 kts | 75° |
| 2026-05-07 14:56 | 31.29082 | -122.76717 | 41102 ft | 482 kts | 75° |
| 2026-05-07 14:57 | 31.30608 | -122.69072 | 41104 ft | 482 kts | 75° |
| 2026-05-07 14:57 | 31.32120 | -122.61473 | 41102 ft | 483 kts | 75° |
| 2026-05-07 14:58 | 31.33638 | -122.53816 | 41091 ft | 483 kts | 75° |
| 2026-05-07 14:58 | 31.35150 | -122.46165 | 41104 ft | 483 kts | 75° |
| 2026-05-07 14:59 | 31.36658 | -122.38507 | 41102 ft | 483 kts | 75° |
| 2026-05-07 14:59 | 31.38163 | -122.30843 | 41097 ft | 483 kts | 75° |
| 2026-05-07 15:00 | 31.39660 | -122.23188 | 41109 ft | 483 kts | 75° |
| 2026-05-07 15:00 | 31.41156 | -122.15515 | 41098 ft | 483 kts | 75° |
| 2026-05-07 15:01 | 31.42648 | -122.07839 | 41097 ft | 483 kts | 75° |
| 2026-05-07 15:01 | 31.44124 | -122.00215 | 41102 ft | 483 kts | 75° |
| 2026-05-07 15:02 | 31.45606 | -121.92535 | 41101 ft | 483 kts | 75° |
| 2026-05-07 15:02 | 31.46959 | -121.85506 | 41104 ft | 483 kts | 75° |
| 2026-05-07 15:03 | 31.48433 | -121.77816 | 41111 ft | 484 kts | 75° |
| 2026-05-07 15:03 | 31.49905 | -121.70115 | 41114 ft | 484 kts | 75° |
| 2026-05-07 15:04 | 31.51375 | -121.62396 | 41110 ft | 485 kts | 75° |
| 2026-05-07 15:04 | 31.52839 | -121.54683 | 41107 ft | 485 kts | 75° |
| 2026-05-07 15:05 | 31.54289 | -121.47014 | 41109 ft | 485 kts | 75° |
| 2026-05-07 15:05 | 31.55832 | -121.39329 | 41113 ft | 483 kts | 70° |
| 2026-05-07 15:06 | 31.58245 | -121.31998 | 41107 ft | 482 kts | 65° |
| 2026-05-07 15:06 | 31.60783 | -121.24721 | 41106 ft | 482 kts | 65° |
| 2026-05-07 15:07 | 31.63311 | -121.17432 | 41095 ft | 482 kts | 65° |
| 2026-05-07 15:07 | 31.65829 | -121.10146 | 41095 ft | 482 kts | 65° |
| 2026-05-07 15:08 | 31.68345 | -121.02848 | 41099 ft | 482 kts | 65° |
| 2026-05-07 15:08 | 31.70856 | -120.95549 | 41107 ft | 482 kts | 65° |
| 2026-05-07 15:09 | 31.73360 | -120.88252 | 41098 ft | 482 kts | 65° |
| 2026-05-07 15:09 | 31.75867 | -120.80930 | 41100 ft | 482 kts | 65° |
| 2026-05-07 15:10 | 31.78370 | -120.73603 | 41106 ft | 483 kts | 65° |
| 2026-05-07 15:10 | 31.80866 | -120.66282 | 41107 ft | 483 kts | 65° |
| 2026-05-07 15:11 | 31.83359 | -120.58952 | 41107 ft | 483 kts | 65° |
| 2026-05-07 15:11 | 31.85847 | -120.51623 | 41102 ft | 483 kts | 65° |
| 2026-05-07 15:12 | 31.87916 | -120.45515 | 41095 ft | 483 kts | 65° |
| 2026-05-07 15:12 | 31.90401 | -120.38160 | 41097 ft | 483 kts | 65° |
| 2026-05-07 15:13 | 31.92880 | -120.30862 | 41100 ft | 483 kts | 64° |
| 2026-05-07 15:13 | 31.96343 | -120.24203 | 41108 ft | 475 kts | 46° |
| 2026-05-07 15:14 | 32.00824 | -120.18490 | 41106 ft | 474 kts | 44° |
| 2026-05-07 15:14 | 32.05344 | -120.12813 | 41102 ft | 475 kts | 44° |
| 2026-05-07 15:15 | 32.09855 | -120.07121 | 41095 ft | 475 kts | 44° |
| 2026-05-07 15:15 | 32.14360 | -120.01422 | 41101 ft | 475 kts | 44° |
| 2026-05-07 15:16 | 32.18863 | -119.95715 | 41094 ft | 475 kts | 44° |
| 2026-05-07 15:16 | 32.23351 | -119.90017 | 40846 ft | 471 kts | 44° |
| 2026-05-07 15:17 | 32.25554 | -119.87217 | 40169 ft | 473 kts | 44° |
| 2026-05-07 15:17 | 32.27797 | -119.84365 | 39499 ft | 473 kts | 44° |
| 2026-05-07 15:17 | 32.30058 | -119.81486 | 38905 ft | 471 kts | 44° |
| 2026-05-07 15:17 | 32.32255 | -119.78688 | 38317 ft | 469 kts | 44° |
| 2026-05-07 15:18 | 32.34500 | -119.75827 | 37656 ft | 468 kts | 44° |
| 2026-05-07 15:18 | 32.36684 | -119.73040 | 36952 ft | 469 kts | 44° |
| 2026-05-07 15:18 | 32.38898 | -119.70214 | 36224 ft | 469 kts | 44° |
| 2026-05-07 15:18 | 32.41120 | -119.67380 | 35479 ft | 469 kts | 44° |
| 2026-05-07 15:19 | 32.43332 | -119.64550 | 34704 ft | 470 kts | 44° |
| 2026-05-07 15:19 | 32.45556 | -119.61702 | 33914 ft | 471 kts | 44° |
| 2026-05-07 15:19 | 32.47787 | -119.58847 | 33059 ft | 474 kts | 44° |
| 2026-05-07 15:19 | 32.50027 | -119.55979 | 32252 ft | 475 kts | 45° |
| 2026-05-07 15:20 | 32.52254 | -119.53120 | 31736 ft | 470 kts | 45° |
| 2026-05-07 15:20 | 32.54461 | -119.50281 | 31205 ft | 465 kts | 45° |
| 2026-05-07 15:20 | 32.56645 | -119.47472 | 30669 ft | 461 kts | 45° |
| 2026-05-07 15:20 | 32.58814 | -119.44683 | 30139 ft | 457 kts | 45° |
| 2026-05-07 15:21 | 32.60958 | -119.41919 | 29624 ft | 453 kts | 45° |
| 2026-05-07 15:21 | 32.63081 | -119.39185 | 29114 ft | 449 kts | 45° |
| 2026-05-07 15:21 | 32.65185 | -119.36474 | 28609 ft | 445 kts | 45° |
| 2026-05-07 15:21 | 32.67280 | -119.33772 | 28107 ft | 441 kts | 45° |
| 2026-05-07 15:22 | 32.69348 | -119.31103 | 27612 ft | 437 kts | 45° |
| 2026-05-07 15:22 | 32.71397 | -119.28457 | 27118 ft | 434 kts | 45° |
| 2026-05-07 15:22 | 32.73429 | -119.25830 | 26630 ft | 430 kts | 45° |
| 2026-05-07 15:22 | 32.75440 | -119.23228 | 26146 ft | 425 kts | 45° |
| 2026-05-07 15:23 | 32.77429 | -119.20652 | 25667 ft | 420 kts | 45° |
| 2026-05-07 15:23 | 32.79402 | -119.18097 | 25194 ft | 417 kts | 45° |
| 2026-05-07 15:23 | 32.81328 | -119.15601 | 24727 ft | 413 kts | 45° |
| 2026-05-07 15:23 | 32.83258 | -119.13098 | 24259 ft | 409 kts | 46° |
| 2026-05-07 15:24 | 32.85172 | -119.10612 | 23788 ft | 405 kts | 46° |
| 2026-05-07 15:24 | 32.87070 | -119.08147 | 23332 ft | 401 kts | 46° |
| 2026-05-07 15:24 | 32.88939 | -119.05716 | 22868 ft | 397 kts | 46° |
| 2026-05-07 15:24 | 32.90799 | -119.03298 | 22421 ft | 393 kts | 46° |
| 2026-05-07 15:25 | 32.92636 | -119.00905 | 21956 ft | 390 kts | 46° |
| 2026-05-07 15:25 | 32.94458 | -118.98532 | 21502 ft | 387 kts | 46° |
| 2026-05-07 15:25 | 32.96266 | -118.96174 | 21050 ft | 383 kts | 46° |
| 2026-05-07 15:25 | 32.98056 | -118.93839 | 20603 ft | 380 kts | 46° |
| 2026-05-07 15:26 | 32.99829 | -118.91526 | 20153 ft | 377 kts | 46° |
| 2026-05-07 15:26 | 33.00405 | -118.90775 | 20001 ft | 375 kts | 46° |
| 2026-05-07 15:26 | 33.01011 | -118.89985 | 19853 ft | 374 kts | 46° |
| 2026-05-07 15:27 | 33.02735 | -118.87735 | 19416 ft | 371 kts | 46° |
| 2026-05-07 15:27 | 33.04471 | -118.85465 | 18983 ft | 368 kts | 46° |
| 2026-05-07 15:27 | 33.06204 | -118.83194 | 18538 ft | 365 kts | 46° |
| 2026-05-07 15:27 | 33.07883 | -118.80999 | 18110 ft | 362 kts | 46° |
| 2026-05-07 15:28 | 33.09579 | -118.78778 | 17616 ft | 360 kts | 46° |
| 2026-05-07 15:28 | 33.11261 | -118.76578 | 17261 ft | 355 kts | 47° |
| 2026-05-07 15:28 | 33.12892 | -118.74436 | 17132 ft | 342 kts | 47° |
| 2026-05-07 15:28 | 33.14461 | -118.72377 | 17016 ft | 331 kts | 47° |
| 2026-05-07 15:29 | 33.15915 | -118.70466 | 16647 ft | 320 kts | 47° |
| 2026-05-07 15:29 | 33.17261 | -118.68698 | 16327 ft | 313 kts | 47° |
| 2026-05-07 15:29 | 33.18738 | -118.66758 | 15967 ft | 316 kts | 47° |
| 2026-05-07 15:29 | 33.20212 | -118.64748 | 15886 ft | 330 kts | 49° |
| 2026-05-07 15:30 | 33.21714 | -118.62619 | 15836 ft | 336 kts | 49° |
| 2026-05-07 15:30 | 33.23201 | -118.60508 | 15754 ft | 337 kts | 49° |
| 2026-05-07 15:30 | 33.24710 | -118.58374 | 15658 ft | 336 kts | 49° |
| 2026-05-07 15:30 | 33.26220 | -118.56247 | 15575 ft | 336 kts | 49° |
| 2026-05-07 15:31 | 33.27739 | -118.54134 | 15490 ft | 335 kts | 48° |
| 2026-05-07 15:31 | 33.29254 | -118.52023 | 15396 ft | 335 kts | 49° |
| 2026-05-07 15:31 | 33.30760 | -118.49902 | 15329 ft | 334 kts | 49° |
| 2026-05-07 15:31 | 33.32264 | -118.47782 | 15164 ft | 336 kts | 49° |
| 2026-05-07 15:32 | 33.33824 | -118.45584 | 15060 ft | 355 kts | 49° |
| 2026-05-07 15:32 | 33.35433 | -118.43314 | 14961 ft | 360 kts | 49° |
| 2026-05-07 15:32 | 33.37003 | -118.40977 | 14915 ft | 361 kts | 54° |
| 2026-05-07 15:32 | 33.38139 | -118.38305 | 14921 ft | 362 kts | 72° |
| 2026-05-07 15:33 | 33.38515 | -118.35322 | 14923 ft | 364 kts | 85° |
| 2026-05-07 15:33 | 33.38362 | -118.32295 | 14788 ft | 368 kts | 99° |
| 2026-05-07 15:33 | 33.37666 | -118.29340 | 14540 ft | 369 kts | 105° |
| 2026-05-07 15:33 | 33.36870 | -118.26463 | 14292 ft | 368 kts | 105° |
| 2026-05-07 15:34 | 33.36063 | -118.23566 | 14049 ft | 367 kts | 105° |
| 2026-05-07 15:34 | 33.35265 | -118.20677 | 14018 ft | 367 kts | 105° |
| 2026-05-07 15:34 | 33.34469 | -118.17775 | 14013 ft | 366 kts | 105° |
| 2026-05-07 15:34 | 33.33697 | -118.14881 | 14014 ft | 365 kts | 103° |
| 2026-05-07 15:35 | 33.33346 | -118.11900 | 14008 ft | 361 kts | 86° |
| 2026-05-07 15:35 | 33.33782 | -118.08991 | 13761 ft | 352 kts | 69° |
| 2026-05-07 15:35 | 33.35025 | -118.06503 | 13287 ft | 350 kts | 50° |
| 2026-05-07 15:35 | 33.36655 | -118.04373 | 12840 ft | 351 kts | 46° |
| 2026-05-07 15:36 | 33.38377 | -118.02297 | 12404 ft | 351 kts | 43° |
| 2026-05-07 15:36 | 33.40369 | -118.00630 | 11962 ft | 350 kts | 26° |
| 2026-05-07 15:36 | 33.42709 | -117.99835 | 11555 ft | 353 kts | 7° |
| 2026-05-07 15:36 | 33.45159 | -117.99797 | 11148 ft | 353 kts | 359° |
| 2026-05-07 15:37 | 33.47608 | -117.99938 | 10857 ft | 346 kts | 358° |
| 2026-05-07 15:37 | 33.49934 | -118.00079 | 10647 ft | 331 kts | 359° |
| 2026-05-07 15:37 | 33.52155 | -118.00205 | 10277 ft | 309 kts | 358° |
| 2026-05-07 15:37 | 33.54253 | -118.00315 | 9773 ft | 294 kts | 359° |
| 2026-05-07 15:38 | 33.56259 | -118.00415 | 9345 ft | 290 kts | 358° |
| 2026-05-07 15:38 | 33.58300 | -118.00515 | 9053 ft | 293 kts | 358° |
| 2026-05-07 15:38 | 33.60335 | -118.00615 | 8657 ft | 292 kts | 358° |
| 2026-05-07 15:38 | 33.62353 | -118.00704 | 8306 ft | 289 kts | 358° |
| 2026-05-07 15:39 | 33.64359 | -118.00823 | 7981 ft | 288 kts | 354° |
| 2026-05-07 15:39 | 33.66315 | -118.01310 | 7831 ft | 287 kts | 345° |
| 2026-05-07 15:39 | 33.68234 | -118.01969 | 7700 ft | 287 kts | 344° |
| 2026-05-07 15:39 | 33.70148 | -118.02639 | 7556 ft | 286 kts | 344° |
| 2026-05-07 15:40 | 33.72036 | -118.03295 | 7425 ft | 277 kts | 344° |
| 2026-05-07 15:40 | 33.73850 | -118.03923 | 7295 ft | 267 kts | 344° |
| 2026-05-07 15:40 | 33.75601 | -118.04528 | 7152 ft | 256 kts | 344° |
| 2026-05-07 15:40 | 33.77282 | -118.05112 | 7030 ft | 247 kts | 344° |
| 2026-05-07 15:41 | 33.78898 | -118.05748 | 6769 ft | 243 kts | 339° |
| 2026-05-07 15:41 | 33.80450 | -118.06475 | 6489 ft | 241 kts | 338° |
| 2026-05-07 15:41 | 33.81997 | -118.07218 | 6210 ft | 239 kts | 338° |
| 2026-05-07 15:41 | 33.83064 | -118.07735 | 6023 ft | 237 kts | 338° |
| 2026-05-07 15:42 | 33.84594 | -118.08474 | 5742 ft | 235 kts | 338° |
| 2026-05-07 15:42 | 33.86103 | -118.09204 | 5462 ft | 233 kts | 338° |
| 2026-05-07 15:42 | 33.87649 | -118.09734 | 5192 ft | 231 kts | 354° |
| 2026-05-07 15:42 | 33.89231 | -118.09471 | 4872 ft | 230 kts | 17° |
| 2026-05-07 15:43 | 33.90719 | -118.08819 | 4529 ft | 227 kts | 21° |
| 2026-05-07 15:43 | 33.91952 | -118.07692 | 4258 ft | 221 kts | 47° |
| 2026-05-07 15:43 | 33.92618 | -118.06085 | 4078 ft | 212 kts | 71° |
| 2026-05-07 15:43 | 33.92890 | -118.04369 | 3843 ft | 205 kts | 80° |
| 2026-05-07 15:44 | 33.93226 | -118.02739 | 3616 ft | 197 kts | 60° |
| 2026-05-07 15:44 | 33.94168 | -118.01668 | 3449 ft | 182 kts | 11° |
| 2026-05-07 15:44 | 33.95364 | -118.01768 | 3442 ft | 182 kts | 323° |
| 2026-05-07 15:44 | 33.96286 | -118.02818 | 3583 ft | 188 kts | 301° |
| 2026-05-07 15:45 | 33.96947 | -118.04197 | 3658 ft | 191 kts | 289° |
| 2026-05-07 15:45 | 33.97355 | -118.05729 | 3667 ft | 194 kts | 285° |
| 2026-05-07 15:45 | 33.97789 | -118.07265 | 3621 ft | 193 kts | 282° |
| 2026-05-07 15:45 | 33.98038 | -118.08848 | 3616 ft | 193 kts | 274° |
| 2026-05-07 15:46 | 33.97967 | -118.12068 | 3608 ft | 193 kts | 262° |
| 2026-05-07 15:46 | 33.97833 | -118.13634 | 3610 ft | 193 kts | 261° |
| 2026-05-07 15:46 | 33.97684 | -118.15242 | 3611 ft | 193 kts | 261° |
| 2026-05-07 15:47 | 33.97537 | -118.16851 | 3613 ft | 193 kts | 261° |
| 2026-05-07 15:47 | 33.97389 | -118.18464 | 3605 ft | 194 kts | 261° |
| 2026-05-07 15:47 | 33.97237 | -118.20089 | 3405 ft | 195 kts | 261° |
| 2026-05-07 15:47 | 33.97078 | -118.21699 | 3144 ft | 193 kts | 261° |
| 2026-05-07 15:48 | 33.96915 | -118.23299 | 2884 ft | 191 kts | 261° |
| 2026-05-07 15:48 | 33.96760 | -118.24888 | 2629 ft | 190 kts | 264° |
| 2026-05-07 15:48 | 33.96610 | -118.26465 | 2383 ft | 189 kts | 263° |
| 2026-05-07 15:48 | 33.96449 | -118.28019 | 2127 ft | 187 kts | 262° |
| 2026-05-07 15:49 | 33.96292 | -118.29558 | 1882 ft | 181 kts | 263° |
| 2026-05-07 15:49 | 33.96145 | -118.31025 | 1643 ft | 170 kts | 262° |
| 2026-05-07 15:49 | 33.96005 | -118.32393 | 1426 ft | 159 kts | 264° |
| 2026-05-07 15:49 | 33.95875 | -118.33672 | 1218 ft | 149 kts | 264° |
| 2026-05-07 15:50 | 33.95753 | -118.34878 | 1031 ft | 142 kts | 263° |
| 2026-05-07 15:50 | 33.95634 | -118.36046 | 844 ft | 140 kts | 263° |
| 2026-05-07 15:50 | 33.95510 | -118.37212 | 666 ft | 141 kts | 262° |
| 2026-05-07 15:50 | 33.95396 | -118.38367 | 459 ft | 141 kts | 263° |
| 2026-05-07 15:51 | 33.95278 | -118.39537 | 269 ft | 141 kts | 263° |
| 2026-05-07 15:51 | 33.95162 | -118.40679 | 130 ft | 139 kts | 263° |
| 2026-05-07 15:51 | 33.95058 | -118.41695 | 114 ft | 92 kts | 262° |
| 2026-05-07 15:51 | 33.95008 | -118.42235 | 114 ft | 41 kts | 262° |
| 2026-05-07 15:52 | 33.94946 | -118.42506 | 113 ft | 25 kts | 246° |
| 2026-05-07 15:52 | 33.94892 | -118.42618 | 111 ft | 10 kts | 235° |
| 2026-05-07 15:52 | 33.94865 | -118.42662 | 110 ft | 6 kts | 231° |
| 2026-05-07 15:52 | 33.94832 | -118.42701 | 111 ft | 7 kts | 217° |
| 2026-05-07 15:53 | 33.94795 | -118.42733 | 114 ft | 8 kts | 214° |
| 2026-05-07 15:53 | 33.94747 | -118.42763 | 115 ft | 9 kts | 202° |
| 2026-05-07 15:53 | 33.94675 | -118.42773 | 110 ft | 14 kts | 165° |
| 2026-05-07 15:53 | 33.94637 | -118.42669 | 106 ft | 17 kts | 86° |
| 2026-05-07 15:54 | 33.94652 | -118.42522 | 105 ft | 19 kts | 82° |
| 2026-05-07 15:54 | 33.94672 | -118.42359 | 105 ft | 20 kts | 82° |
| 2026-05-07 15:54 | 33.94691 | -118.42180 | 105 ft | 22 kts | 83° |
| 2026-05-07 15:54 | 33.94708 | -118.41986 | 104 ft | 24 kts | 83° |
| 2026-05-07 15:55 | 33.94728 | -118.41780 | 104 ft | 26 kts | 83° |
| 2026-05-07 15:55 | 33.94751 | -118.41562 | 105 ft | 27 kts | 82° |
| 2026-05-07 15:55 | 33.94779 | -118.41338 | 105 ft | 27 kts | 80° |
| 2026-05-07 15:55 | 33.94812 | -118.41112 | 107 ft | 28 kts | 81° |
| 2026-05-07 15:56 | 33.94834 | -118.40912 | 107 ft | 24 kts | 84° |
| 2026-05-07 15:56 | 33.94853 | -118.40713 | 106 ft | 21 kts | 82° |
| 2026-05-07 15:56 | 33.94821 | -118.40594 | 104 ft | 17 kts | 140° |
| 2026-05-07 15:56 | 33.94741 | -118.40518 | 102 ft | 12 kts | 133° |
| 2026-05-07 15:57 | 33.94723 | -118.40494 | 101 ft | 0 kts | 133° |